<?xml version="1.0" encoding="UTF-8" standalone="no" ?>
<gpx xmlns="http://www.topografix.com/GPX/1/1" xmlns:xsi="http://www.w3.org/2001/XMLSchema-instance" xsi:schemaLocation="http://www.topografix.com/GPX/1/1 http://www.topografix.com/GPX/1/1/gpx.xsd" version="1.1" creator="VisuGPX - https://www.visugpx.com">
  <metadata>
    <name>ski de fond la feclaz-Le revard 25/02/2015</name>
    <desc><![CDATA[ski de fond la feclaz-Le revard 25/02/2015]]></desc>
  </metadata>
  <trk>
    <name><![CDATA[2015-02-25 12:15]]></name>
    <desc><![CDATA[<h1>OruxMaps</h1><br /><hr align="center" width="480" style="height: 2px; width: 517px"/><h2>Nom: 2015-02-25 12:15</h2><br /><p>Temps de départ: 02/25/2015 12:14</p><p>Temps d'arrivée: 02/25/2015 17:48</p><p>Distance: 20,1km (05:34)</p><p>Temps déplacement: 03:04</p><p>Vitesse moyenne: 3,6km/h</p><p>Vitesse moyenne: 6,5km/h</p><p>Vitess Max.: 31,7km/h</p><p>Altitude minimale: 1355m</p><p>Altitude maximale: 1588m</p><p>Vitesse d'élévation: 428m/h</p><p>Vitesse de descente: -348,8m/h</p><p>Gain Altitude: 989m</p><p>Perte Altitude: -995m</p><p>Temps d'élévation: 02:18</p><p>Temps de descente: 02:51</p><hr align="center" width="480" style="height: 2px; width: 517px"/>]]></desc>
    <trkseg>
      <trkpt lat="45.64542" lon="5.98307">
        <ele>1322</ele>
        <time>2015-02-25T11:14:16Z</time>
      </trkpt>
      <trkpt lat="45.64561" lon="5.98309">
        <ele>1322</ele>
        <time>2015-02-25T11:15:39Z</time>
      </trkpt>
      <trkpt lat="45.64578" lon="5.98315">
        <ele>1322</ele>
        <time>2015-02-25T11:15:54Z</time>
      </trkpt>
      <trkpt lat="45.64596" lon="5.9832">
        <ele>1324</ele>
        <time>2015-02-25T11:16:11Z</time>
      </trkpt>
      <trkpt lat="45.64614" lon="5.98329">
        <ele>1325</ele>
        <time>2015-02-25T11:16:26Z</time>
      </trkpt>
      <trkpt lat="45.64631" lon="5.98341">
        <ele>1324</ele>
        <time>2015-02-25T11:16:41Z</time>
      </trkpt>
      <trkpt lat="45.64643" lon="5.98364">
        <ele>1324</ele>
        <time>2015-02-25T11:16:53Z</time>
      </trkpt>
      <trkpt lat="45.64645" lon="5.98391">
        <ele>1324</ele>
        <time>2015-02-25T11:17:08Z</time>
      </trkpt>
      <trkpt lat="45.64645" lon="5.98418">
        <ele>1322</ele>
        <time>2015-02-25T11:17:27Z</time>
      </trkpt>
      <trkpt lat="45.6466" lon="5.98439">
        <ele>1322</ele>
        <time>2015-02-25T11:17:47Z</time>
      </trkpt>
      <trkpt lat="45.64675" lon="5.98454">
        <ele>1324</ele>
        <time>2015-02-25T11:17:51Z</time>
      </trkpt>
      <trkpt lat="45.64691" lon="5.98469">
        <ele>1324</ele>
        <time>2015-02-25T11:17:53Z</time>
      </trkpt>
      <trkpt lat="45.6471" lon="5.98486">
        <ele>1325</ele>
        <time>2015-02-25T11:17:57Z</time>
      </trkpt>
      <trkpt lat="45.64727" lon="5.98494">
        <ele>1325</ele>
        <time>2015-02-25T11:18:02Z</time>
      </trkpt>
      <trkpt lat="45.64744" lon="5.98506">
        <ele>1324</ele>
        <time>2015-02-25T11:18:10Z</time>
      </trkpt>
      <trkpt lat="45.6475" lon="5.9853">
        <ele>1325</ele>
        <time>2015-02-25T11:18:24Z</time>
      </trkpt>
      <trkpt lat="45.6475" lon="5.98559">
        <ele>1324</ele>
        <time>2015-02-25T11:18:31Z</time>
      </trkpt>
      <trkpt lat="45.64757" lon="5.98584">
        <ele>1322</ele>
        <time>2015-02-25T11:20:00Z</time>
      </trkpt>
      <trkpt lat="45.64768" lon="5.98606">
        <ele>1321</ele>
        <time>2015-02-25T11:20:15Z</time>
      </trkpt>
      <trkpt lat="45.64778" lon="5.98632">
        <ele>1320</ele>
        <time>2015-02-25T11:20:23Z</time>
      </trkpt>
      <trkpt lat="45.64785" lon="5.98659">
        <ele>1319</ele>
        <time>2015-02-25T11:20:28Z</time>
      </trkpt>
      <trkpt lat="45.64794" lon="5.98681">
        <ele>1318</ele>
        <time>2015-02-25T11:20:32Z</time>
      </trkpt>
      <trkpt lat="45.64807" lon="5.98702">
        <ele>1319</ele>
        <time>2015-02-25T11:20:36Z</time>
      </trkpt>
      <trkpt lat="45.64821" lon="5.98721">
        <ele>1319</ele>
        <time>2015-02-25T11:20:41Z</time>
      </trkpt>
      <trkpt lat="45.64835" lon="5.98737">
        <ele>1319</ele>
        <time>2015-02-25T11:20:48Z</time>
      </trkpt>
      <trkpt lat="45.64852" lon="5.98749">
        <ele>1319</ele>
        <time>2015-02-25T11:21:05Z</time>
      </trkpt>
      <trkpt lat="45.6487" lon="5.98759">
        <ele>1319</ele>
        <time>2015-02-25T11:21:20Z</time>
      </trkpt>
      <trkpt lat="45.64889" lon="5.98761">
        <ele>1319</ele>
        <time>2015-02-25T11:21:29Z</time>
      </trkpt>
      <trkpt lat="45.64908" lon="5.9876">
        <ele>1319</ele>
        <time>2015-02-25T11:21:37Z</time>
      </trkpt>
      <trkpt lat="45.64927" lon="5.98759">
        <ele>1320</ele>
        <time>2015-02-25T11:23:38Z</time>
      </trkpt>
      <trkpt lat="45.64947" lon="5.98762">
        <ele>1321</ele>
        <time>2015-02-25T11:23:53Z</time>
      </trkpt>
      <trkpt lat="45.64966" lon="5.98769">
        <ele>1322</ele>
        <time>2015-02-25T11:24:08Z</time>
      </trkpt>
      <trkpt lat="45.64978" lon="5.98789">
        <ele>1323</ele>
        <time>2015-02-25T11:24:30Z</time>
      </trkpt>
      <trkpt lat="45.64971" lon="5.98813">
        <ele>1323</ele>
        <time>2015-02-25T11:24:36Z</time>
      </trkpt>
      <trkpt lat="45.64951" lon="5.98827">
        <ele>1322</ele>
        <time>2015-02-25T11:24:41Z</time>
      </trkpt>
      <trkpt lat="45.64931" lon="5.98845">
        <ele>1323</ele>
        <time>2015-02-25T11:24:43Z</time>
      </trkpt>
      <trkpt lat="45.64914" lon="5.9886">
        <ele>1321</ele>
        <time>2015-02-25T11:24:46Z</time>
      </trkpt>
      <trkpt lat="45.64896" lon="5.98865">
        <ele>1322</ele>
        <time>2015-02-25T11:24:51Z</time>
      </trkpt>
      <trkpt lat="45.6488" lon="5.9888">
        <ele>1322</ele>
        <time>2015-02-25T11:24:58Z</time>
      </trkpt>
      <trkpt lat="45.64863" lon="5.9889">
        <ele>1322</ele>
        <time>2015-02-25T11:25:18Z</time>
      </trkpt>
      <trkpt lat="45.64849" lon="5.98907">
        <ele>1322</ele>
        <time>2015-02-25T11:25:39Z</time>
      </trkpt>
      <trkpt lat="45.64831" lon="5.98911">
        <ele>1322</ele>
        <time>2015-02-25T11:25:47Z</time>
      </trkpt>
      <trkpt lat="45.64808" lon="5.9891">
        <ele>1321</ele>
        <time>2015-02-25T11:25:51Z</time>
      </trkpt>
      <trkpt lat="45.64776" lon="5.98941">
        <ele>1320</ele>
        <time>2015-02-25T11:25:54Z</time>
      </trkpt>
      <trkpt lat="45.64769" lon="5.98968">
        <ele>1320</ele>
        <time>2015-02-25T11:25:57Z</time>
      </trkpt>
      <trkpt lat="45.64767" lon="5.98999">
        <ele>1319</ele>
        <time>2015-02-25T11:26:00Z</time>
      </trkpt>
      <trkpt lat="45.64765" lon="5.99028">
        <ele>1321</ele>
        <time>2015-02-25T11:26:05Z</time>
      </trkpt>
      <trkpt lat="45.6477" lon="5.99053">
        <ele>1322</ele>
        <time>2015-02-25T11:26:30Z</time>
      </trkpt>
      <trkpt lat="45.64774" lon="5.99079">
        <ele>1322</ele>
        <time>2015-02-25T11:26:57Z</time>
      </trkpt>
      <trkpt lat="45.64768" lon="5.99104">
        <ele>1323</ele>
        <time>2015-02-25T11:27:13Z</time>
      </trkpt>
      <trkpt lat="45.64778" lon="5.99129">
        <ele>1324</ele>
        <time>2015-02-25T11:27:19Z</time>
      </trkpt>
      <trkpt lat="45.6479" lon="5.99149">
        <ele>1324</ele>
        <time>2015-02-25T11:27:25Z</time>
      </trkpt>
      <trkpt lat="45.64803" lon="5.99168">
        <ele>1325</ele>
        <time>2015-02-25T11:27:41Z</time>
      </trkpt>
      <trkpt lat="45.64819" lon="5.99188">
        <ele>1325</ele>
        <time>2015-02-25T11:27:48Z</time>
      </trkpt>
      <trkpt lat="45.64826" lon="5.99214">
        <ele>1325</ele>
        <time>2015-02-25T11:27:54Z</time>
      </trkpt>
      <trkpt lat="45.64831" lon="5.9924">
        <ele>1325</ele>
        <time>2015-02-25T11:28:07Z</time>
      </trkpt>
      <trkpt lat="45.64829" lon="5.99266">
        <ele>1326</ele>
        <time>2015-02-25T11:28:20Z</time>
      </trkpt>
      <trkpt lat="45.64833" lon="5.99292">
        <ele>1328</ele>
        <time>2015-02-25T11:28:36Z</time>
      </trkpt>
      <trkpt lat="45.64839" lon="5.99317">
        <ele>1328</ele>
        <time>2015-02-25T11:28:50Z</time>
      </trkpt>
      <trkpt lat="45.6485" lon="5.9934">
        <ele>1330</ele>
        <time>2015-02-25T11:29:06Z</time>
      </trkpt>
      <trkpt lat="45.64855" lon="5.99365">
        <ele>1330</ele>
        <time>2015-02-25T11:29:17Z</time>
      </trkpt>
      <trkpt lat="45.64862" lon="5.99391">
        <ele>1331</ele>
        <time>2015-02-25T11:29:31Z</time>
      </trkpt>
      <trkpt lat="45.64867" lon="5.99418">
        <ele>1333</ele>
        <time>2015-02-25T11:29:40Z</time>
      </trkpt>
      <trkpt lat="45.64866" lon="5.99443">
        <ele>1333</ele>
        <time>2015-02-25T11:29:45Z</time>
      </trkpt>
      <trkpt lat="45.64866" lon="5.99473">
        <ele>1334</ele>
        <time>2015-02-25T11:29:50Z</time>
      </trkpt>
      <trkpt lat="45.64871" lon="5.99498">
        <ele>1334</ele>
        <time>2015-02-25T11:29:55Z</time>
      </trkpt>
      <trkpt lat="45.64878" lon="5.99522">
        <ele>1334</ele>
        <time>2015-02-25T11:30:01Z</time>
      </trkpt>
      <trkpt lat="45.64887" lon="5.99546">
        <ele>1333</ele>
        <time>2015-02-25T11:30:15Z</time>
      </trkpt>
      <trkpt lat="45.64904" lon="5.9956">
        <ele>1333</ele>
        <time>2015-02-25T11:30:28Z</time>
      </trkpt>
      <trkpt lat="45.64924" lon="5.99559">
        <ele>1333</ele>
        <time>2015-02-25T11:30:35Z</time>
      </trkpt>
      <trkpt lat="45.64942" lon="5.99564">
        <ele>1334</ele>
        <time>2015-02-25T11:30:48Z</time>
      </trkpt>
      <trkpt lat="45.64958" lon="5.99578">
        <ele>1335</ele>
        <time>2015-02-25T11:31:08Z</time>
      </trkpt>
      <trkpt lat="45.64976" lon="5.99586">
        <ele>1340</ele>
        <time>2015-02-25T11:31:35Z</time>
      </trkpt>
      <trkpt lat="45.64993" lon="5.99581">
        <ele>1340</ele>
        <time>2015-02-25T11:31:54Z</time>
      </trkpt>
      <trkpt lat="45.65011" lon="5.99575">
        <ele>1344</ele>
        <time>2015-02-25T11:32:32Z</time>
      </trkpt>
      <trkpt lat="45.65029" lon="5.99578">
        <ele>1345</ele>
        <time>2015-02-25T11:33:00Z</time>
      </trkpt>
      <trkpt lat="45.65048" lon="5.99578">
        <ele>1347</ele>
        <time>2015-02-25T11:33:17Z</time>
      </trkpt>
      <trkpt lat="45.65062" lon="5.99596">
        <ele>1351</ele>
        <time>2015-02-25T11:33:46Z</time>
      </trkpt>
      <trkpt lat="45.6508" lon="5.99598">
        <ele>1352</ele>
        <time>2015-02-25T11:34:04Z</time>
      </trkpt>
      <trkpt lat="45.65098" lon="5.99596">
        <ele>1357</ele>
        <time>2015-02-25T11:34:34Z</time>
      </trkpt>
      <trkpt lat="45.65117" lon="5.99594">
        <ele>1359</ele>
        <time>2015-02-25T11:34:56Z</time>
      </trkpt>
      <trkpt lat="45.65131" lon="5.99578">
        <ele>1358</ele>
        <time>2015-02-25T11:35:18Z</time>
      </trkpt>
      <trkpt lat="45.65148" lon="5.99564">
        <ele>1359</ele>
        <time>2015-02-25T11:35:57Z</time>
      </trkpt>
      <trkpt lat="45.65158" lon="5.99542">
        <ele>1358</ele>
        <time>2015-02-25T11:36:17Z</time>
      </trkpt>
      <trkpt lat="45.65173" lon="5.99527">
        <ele>1363</ele>
        <time>2015-02-25T11:37:55Z</time>
      </trkpt>
      <trkpt lat="45.6519" lon="5.99515">
        <ele>1363</ele>
        <time>2015-02-25T11:38:25Z</time>
      </trkpt>
      <trkpt lat="45.65208" lon="5.99511">
        <ele>1365</ele>
        <time>2015-02-25T11:38:44Z</time>
      </trkpt>
      <trkpt lat="45.65226" lon="5.99504">
        <ele>1365</ele>
        <time>2015-02-25T11:38:58Z</time>
      </trkpt>
      <trkpt lat="45.65244" lon="5.99495">
        <ele>1365</ele>
        <time>2015-02-25T11:39:18Z</time>
      </trkpt>
      <trkpt lat="45.6526" lon="5.99483">
        <ele>1366</ele>
        <time>2015-02-25T11:39:31Z</time>
      </trkpt>
      <trkpt lat="45.65278" lon="5.99478">
        <ele>1366</ele>
        <time>2015-02-25T11:39:49Z</time>
      </trkpt>
      <trkpt lat="45.65296" lon="5.99478">
        <ele>1366</ele>
        <time>2015-02-25T11:40:01Z</time>
      </trkpt>
      <trkpt lat="45.65314" lon="5.99482">
        <ele>1366</ele>
        <time>2015-02-25T11:40:16Z</time>
      </trkpt>
      <trkpt lat="45.65332" lon="5.99476">
        <ele>1366</ele>
        <time>2015-02-25T11:40:47Z</time>
      </trkpt>
      <trkpt lat="45.65349" lon="5.99466">
        <ele>1364</ele>
        <time>2015-02-25T11:41:14Z</time>
      </trkpt>
      <trkpt lat="45.65366" lon="5.99476">
        <ele>1364</ele>
        <time>2015-02-25T11:41:41Z</time>
      </trkpt>
      <trkpt lat="45.65372" lon="5.99501">
        <ele>1369</ele>
        <time>2015-02-25T11:41:57Z</time>
      </trkpt>
      <trkpt lat="45.65385" lon="5.99523">
        <ele>1369</ele>
        <time>2015-02-25T11:42:09Z</time>
      </trkpt>
      <trkpt lat="45.65395" lon="5.99547">
        <ele>1370</ele>
        <time>2015-02-25T11:42:20Z</time>
      </trkpt>
      <trkpt lat="45.65408" lon="5.99567">
        <ele>1371</ele>
        <time>2015-02-25T11:42:27Z</time>
      </trkpt>
      <trkpt lat="45.65426" lon="5.99577">
        <ele>1368</ele>
        <time>2015-02-25T11:42:31Z</time>
      </trkpt>
      <trkpt lat="45.65443" lon="5.99593">
        <ele>1370</ele>
        <time>2015-02-25T11:42:35Z</time>
      </trkpt>
      <trkpt lat="45.6546" lon="5.99614">
        <ele>1369</ele>
        <time>2015-02-25T11:42:39Z</time>
      </trkpt>
      <trkpt lat="45.65474" lon="5.99631">
        <ele>1369</ele>
        <time>2015-02-25T11:42:42Z</time>
      </trkpt>
      <trkpt lat="45.65491" lon="5.99648">
        <ele>1368</ele>
        <time>2015-02-25T11:42:46Z</time>
      </trkpt>
      <trkpt lat="45.65503" lon="5.9967">
        <ele>1366</ele>
        <time>2015-02-25T11:42:53Z</time>
      </trkpt>
      <trkpt lat="45.65514" lon="5.99694">
        <ele>1367</ele>
        <time>2015-02-25T11:43:01Z</time>
      </trkpt>
      <trkpt lat="45.65523" lon="5.99718">
        <ele>1368</ele>
        <time>2015-02-25T11:43:10Z</time>
      </trkpt>
      <trkpt lat="45.65534" lon="5.99743">
        <ele>1368</ele>
        <time>2015-02-25T11:43:18Z</time>
      </trkpt>
      <trkpt lat="45.65552" lon="5.99751">
        <ele>1367</ele>
        <time>2015-02-25T11:43:23Z</time>
      </trkpt>
      <trkpt lat="45.65568" lon="5.99762">
        <ele>1365</ele>
        <time>2015-02-25T11:45:46Z</time>
      </trkpt>
      <trkpt lat="45.65572" lon="5.99789">
        <ele>1367</ele>
        <time>2015-02-25T11:45:54Z</time>
      </trkpt>
      <trkpt lat="45.65585" lon="5.99807">
        <ele>1362</ele>
        <time>2015-02-25T11:46:00Z</time>
      </trkpt>
      <trkpt lat="45.65602" lon="5.9982">
        <ele>1362</ele>
        <time>2015-02-25T11:46:13Z</time>
      </trkpt>
      <trkpt lat="45.65614" lon="5.9984">
        <ele>1365</ele>
        <time>2015-02-25T11:46:27Z</time>
      </trkpt>
      <trkpt lat="45.65622" lon="5.99864">
        <ele>1366</ele>
        <time>2015-02-25T11:46:36Z</time>
      </trkpt>
      <trkpt lat="45.6564" lon="5.99872">
        <ele>1365</ele>
        <time>2015-02-25T11:46:50Z</time>
      </trkpt>
      <trkpt lat="45.65659" lon="5.99871">
        <ele>1364</ele>
        <time>2015-02-25T11:47:24Z</time>
      </trkpt>
      <trkpt lat="45.65678" lon="5.99861">
        <ele>1363</ele>
        <time>2015-02-25T11:47:34Z</time>
      </trkpt>
      <trkpt lat="45.65695" lon="5.99853">
        <ele>1363</ele>
        <time>2015-02-25T11:47:44Z</time>
      </trkpt>
      <trkpt lat="45.65713" lon="5.99856">
        <ele>1364</ele>
        <time>2015-02-25T11:48:03Z</time>
      </trkpt>
      <trkpt lat="45.65732" lon="5.99854">
        <ele>1365</ele>
        <time>2015-02-25T11:48:15Z</time>
      </trkpt>
      <trkpt lat="45.6575" lon="5.99851">
        <ele>1368</ele>
        <time>2015-02-25T11:48:26Z</time>
      </trkpt>
      <trkpt lat="45.65765" lon="5.99836">
        <ele>1368</ele>
        <time>2015-02-25T11:48:39Z</time>
      </trkpt>
      <trkpt lat="45.65782" lon="5.99822">
        <ele>1369</ele>
        <time>2015-02-25T11:48:57Z</time>
      </trkpt>
      <trkpt lat="45.658" lon="5.9981">
        <ele>1369</ele>
        <time>2015-02-25T11:49:07Z</time>
      </trkpt>
      <trkpt lat="45.65816" lon="5.99792">
        <ele>1369</ele>
        <time>2015-02-25T11:49:16Z</time>
      </trkpt>
      <trkpt lat="45.6583" lon="5.99777">
        <ele>1369</ele>
        <time>2015-02-25T11:49:24Z</time>
      </trkpt>
      <trkpt lat="45.65839" lon="5.99754">
        <ele>1370</ele>
        <time>2015-02-25T11:49:36Z</time>
      </trkpt>
      <trkpt lat="45.65845" lon="5.99727">
        <ele>1370</ele>
        <time>2015-02-25T11:49:44Z</time>
      </trkpt>
      <trkpt lat="45.6585" lon="5.99702">
        <ele>1370</ele>
        <time>2015-02-25T11:49:51Z</time>
      </trkpt>
      <trkpt lat="45.65851" lon="5.99675">
        <ele>1370</ele>
        <time>2015-02-25T11:49:58Z</time>
      </trkpt>
      <trkpt lat="45.65851" lon="5.99649">
        <ele>1369</ele>
        <time>2015-02-25T11:50:07Z</time>
      </trkpt>
      <trkpt lat="45.65846" lon="5.99623">
        <ele>1369</ele>
        <time>2015-02-25T11:50:17Z</time>
      </trkpt>
      <trkpt lat="45.65843" lon="5.99597">
        <ele>1368</ele>
        <time>2015-02-25T11:52:30Z</time>
      </trkpt>
      <trkpt lat="45.65852" lon="5.99574">
        <ele>1369</ele>
        <time>2015-02-25T11:52:57Z</time>
      </trkpt>
      <trkpt lat="45.65857" lon="5.99548">
        <ele>1369</ele>
        <time>2015-02-25T11:53:07Z</time>
      </trkpt>
      <trkpt lat="45.65861" lon="5.99521">
        <ele>1369</ele>
        <time>2015-02-25T11:53:18Z</time>
      </trkpt>
      <trkpt lat="45.65861" lon="5.99495">
        <ele>1369</ele>
        <time>2015-02-25T11:53:28Z</time>
      </trkpt>
      <trkpt lat="45.65857" lon="5.99467">
        <ele>1370</ele>
        <time>2015-02-25T11:53:37Z</time>
      </trkpt>
      <trkpt lat="45.65852" lon="5.9944">
        <ele>1369</ele>
        <time>2015-02-25T11:53:44Z</time>
      </trkpt>
      <trkpt lat="45.65847" lon="5.99414">
        <ele>1369</ele>
        <time>2015-02-25T11:53:54Z</time>
      </trkpt>
      <trkpt lat="45.65843" lon="5.99387">
        <ele>1369</ele>
        <time>2015-02-25T11:54:03Z</time>
      </trkpt>
      <trkpt lat="45.65842" lon="5.9936">
        <ele>1369</ele>
        <time>2015-02-25T11:54:18Z</time>
      </trkpt>
      <trkpt lat="45.65847" lon="5.99334">
        <ele>1369</ele>
        <time>2015-02-25T11:54:32Z</time>
      </trkpt>
      <trkpt lat="45.65858" lon="5.99312">
        <ele>1371</ele>
        <time>2015-02-25T11:54:44Z</time>
      </trkpt>
      <trkpt lat="45.65868" lon="5.99286">
        <ele>1371</ele>
        <time>2015-02-25T11:54:53Z</time>
      </trkpt>
      <trkpt lat="45.65875" lon="5.99261">
        <ele>1372</ele>
        <time>2015-02-25T11:54:59Z</time>
      </trkpt>
      <trkpt lat="45.65882" lon="5.99236">
        <ele>1374</ele>
        <time>2015-02-25T11:55:06Z</time>
      </trkpt>
      <trkpt lat="45.659" lon="5.99227">
        <ele>1374</ele>
        <time>2015-02-25T11:55:25Z</time>
      </trkpt>
      <trkpt lat="45.65917" lon="5.99238">
        <ele>1374</ele>
        <time>2015-02-25T11:56:01Z</time>
      </trkpt>
      <trkpt lat="45.65933" lon="5.99251">
        <ele>1374</ele>
        <time>2015-02-25T11:56:17Z</time>
      </trkpt>
      <trkpt lat="45.65952" lon="5.99257">
        <ele>1374</ele>
        <time>2015-02-25T11:56:30Z</time>
      </trkpt>
      <trkpt lat="45.65971" lon="5.9926">
        <ele>1375</ele>
        <time>2015-02-25T11:56:43Z</time>
      </trkpt>
      <trkpt lat="45.65988" lon="5.99271">
        <ele>1375</ele>
        <time>2015-02-25T11:56:59Z</time>
      </trkpt>
      <trkpt lat="45.66007" lon="5.99271">
        <ele>1377</ele>
        <time>2015-02-25T11:57:27Z</time>
      </trkpt>
      <trkpt lat="45.66024" lon="5.99275">
        <ele>1377</ele>
        <time>2015-02-25T11:57:48Z</time>
      </trkpt>
      <trkpt lat="45.66043" lon="5.99279">
        <ele>1377</ele>
        <time>2015-02-25T11:58:17Z</time>
      </trkpt>
      <trkpt lat="45.66061" lon="5.99279">
        <ele>1378</ele>
        <time>2015-02-25T11:58:35Z</time>
      </trkpt>
      <trkpt lat="45.6608" lon="5.99279">
        <ele>1378</ele>
        <time>2015-02-25T11:58:49Z</time>
      </trkpt>
      <trkpt lat="45.66098" lon="5.99287">
        <ele>1381</ele>
        <time>2015-02-25T11:59:00Z</time>
      </trkpt>
      <trkpt lat="45.66116" lon="5.99297">
        <ele>1381</ele>
        <time>2015-02-25T11:59:17Z</time>
      </trkpt>
      <trkpt lat="45.66126" lon="5.9932">
        <ele>1380</ele>
        <time>2015-02-25T11:59:37Z</time>
      </trkpt>
      <trkpt lat="45.66137" lon="5.99342">
        <ele>1378</ele>
        <time>2015-02-25T11:59:50Z</time>
      </trkpt>
      <trkpt lat="45.66155" lon="5.9935">
        <ele>1379</ele>
        <time>2015-02-25T12:00:06Z</time>
      </trkpt>
      <trkpt lat="45.66173" lon="5.99357">
        <ele>1380</ele>
        <time>2015-02-25T12:00:28Z</time>
      </trkpt>
      <trkpt lat="45.66188" lon="5.99378">
        <ele>1379</ele>
        <time>2015-02-25T12:00:35Z</time>
      </trkpt>
      <trkpt lat="45.66203" lon="5.99394">
        <ele>1379</ele>
        <time>2015-02-25T12:00:46Z</time>
      </trkpt>
      <trkpt lat="45.66218" lon="5.9941">
        <ele>1379</ele>
        <time>2015-02-25T12:00:59Z</time>
      </trkpt>
      <trkpt lat="45.66227" lon="5.99434">
        <ele>1378</ele>
        <time>2015-02-25T12:01:20Z</time>
      </trkpt>
      <trkpt lat="45.66237" lon="5.99455">
        <ele>1379</ele>
        <time>2015-02-25T12:01:47Z</time>
      </trkpt>
      <trkpt lat="45.66252" lon="5.99472">
        <ele>1380</ele>
        <time>2015-02-25T12:02:04Z</time>
      </trkpt>
      <trkpt lat="45.66266" lon="5.9949">
        <ele>1381</ele>
        <time>2015-02-25T12:02:26Z</time>
      </trkpt>
      <trkpt lat="45.66272" lon="5.99515">
        <ele>1381</ele>
        <time>2015-02-25T12:02:59Z</time>
      </trkpt>
      <trkpt lat="45.66271" lon="5.99542">
        <ele>1382</ele>
        <time>2015-02-25T12:03:14Z</time>
      </trkpt>
      <trkpt lat="45.66281" lon="5.99564">
        <ele>1382</ele>
        <time>2015-02-25T12:03:39Z</time>
      </trkpt>
      <trkpt lat="45.66278" lon="5.99591">
        <ele>1382</ele>
        <time>2015-02-25T12:03:51Z</time>
      </trkpt>
      <trkpt lat="45.66287" lon="5.99614">
        <ele>1382</ele>
        <time>2015-02-25T12:04:08Z</time>
      </trkpt>
      <trkpt lat="45.66299" lon="5.99634">
        <ele>1382</ele>
        <time>2015-02-25T12:04:25Z</time>
      </trkpt>
      <trkpt lat="45.66311" lon="5.99654">
        <ele>1382</ele>
        <time>2015-02-25T12:04:33Z</time>
      </trkpt>
      <trkpt lat="45.66327" lon="5.99668">
        <ele>1381</ele>
        <time>2015-02-25T12:04:40Z</time>
      </trkpt>
      <trkpt lat="45.66329" lon="5.99696">
        <ele>1381</ele>
        <time>2015-02-25T12:05:05Z</time>
      </trkpt>
      <trkpt lat="45.66317" lon="5.99715">
        <ele>1380</ele>
        <time>2015-02-25T12:05:20Z</time>
      </trkpt>
      <trkpt lat="45.66301" lon="5.99736">
        <ele>1380</ele>
        <time>2015-02-25T12:05:35Z</time>
      </trkpt>
      <trkpt lat="45.66293" lon="5.99759">
        <ele>1380</ele>
        <time>2015-02-25T12:05:48Z</time>
      </trkpt>
      <trkpt lat="45.66299" lon="5.99784">
        <ele>1380</ele>
        <time>2015-02-25T12:06:47Z</time>
      </trkpt>
      <trkpt lat="45.66311" lon="5.99803">
        <ele>1380</ele>
        <time>2015-02-25T12:07:00Z</time>
      </trkpt>
      <trkpt lat="45.66319" lon="5.99828">
        <ele>1380</ele>
        <time>2015-02-25T12:07:21Z</time>
      </trkpt>
      <trkpt lat="45.66329" lon="5.9985">
        <ele>1381</ele>
        <time>2015-02-25T12:07:46Z</time>
      </trkpt>
      <trkpt lat="45.66344" lon="5.99864">
        <ele>1380</ele>
        <time>2015-02-25T12:11:42Z</time>
      </trkpt>
      <trkpt lat="45.66353" lon="5.99889">
        <ele>1380</ele>
        <time>2015-02-25T12:12:21Z</time>
      </trkpt>
      <trkpt lat="45.66348" lon="5.99916">
        <ele>1380</ele>
        <time>2015-02-25T12:12:26Z</time>
      </trkpt>
      <trkpt lat="45.66342" lon="5.99941">
        <ele>1381</ele>
        <time>2015-02-25T12:12:30Z</time>
      </trkpt>
      <trkpt lat="45.66346" lon="5.99967">
        <ele>1381</ele>
        <time>2015-02-25T12:14:23Z</time>
      </trkpt>
      <trkpt lat="45.66358" lon="5.99988">
        <ele>1382</ele>
        <time>2015-02-25T12:14:44Z</time>
      </trkpt>
      <trkpt lat="45.66376" lon="6.00003">
        <ele>1382</ele>
        <time>2015-02-25T12:14:52Z</time>
      </trkpt>
      <trkpt lat="45.66391" lon="6.00018">
        <ele>1382</ele>
        <time>2015-02-25T12:14:58Z</time>
      </trkpt>
      <trkpt lat="45.66407" lon="6.00035">
        <ele>1382</ele>
        <time>2015-02-25T12:15:06Z</time>
      </trkpt>
      <trkpt lat="45.66425" lon="6.00037">
        <ele>1380</ele>
        <time>2015-02-25T12:15:15Z</time>
      </trkpt>
      <trkpt lat="45.66439" lon="6.00021">
        <ele>1380</ele>
        <time>2015-02-25T12:16:51Z</time>
      </trkpt>
      <trkpt lat="45.66458" lon="6.00014">
        <ele>1380</ele>
        <time>2015-02-25T12:16:58Z</time>
      </trkpt>
      <trkpt lat="45.66473" lon="6">
        <ele>1380</ele>
        <time>2015-02-25T12:17:09Z</time>
      </trkpt>
      <trkpt lat="45.66489" lon="5.99986">
        <ele>1380</ele>
        <time>2015-02-25T12:17:31Z</time>
      </trkpt>
      <trkpt lat="45.66501" lon="5.99965">
        <ele>1380</ele>
        <time>2015-02-25T12:17:53Z</time>
      </trkpt>
      <trkpt lat="45.66519" lon="5.99954">
        <ele>1380</ele>
        <time>2015-02-25T12:18:05Z</time>
      </trkpt>
      <trkpt lat="45.66536" lon="5.99941">
        <ele>1380</ele>
        <time>2015-02-25T12:18:18Z</time>
      </trkpt>
      <trkpt lat="45.66551" lon="5.99926">
        <ele>1380</ele>
        <time>2015-02-25T12:18:38Z</time>
      </trkpt>
      <trkpt lat="45.66563" lon="5.99906">
        <ele>1379</ele>
        <time>2015-02-25T12:19:40Z</time>
      </trkpt>
      <trkpt lat="45.66572" lon="5.99883">
        <ele>1379</ele>
        <time>2015-02-25T12:20:46Z</time>
      </trkpt>
      <trkpt lat="45.66583" lon="5.9986">
        <ele>1379</ele>
        <time>2015-02-25T12:20:59Z</time>
      </trkpt>
      <trkpt lat="45.66583" lon="5.99834">
        <ele>1378</ele>
        <time>2015-02-25T12:22:48Z</time>
      </trkpt>
      <trkpt lat="45.66581" lon="5.99806">
        <ele>1378</ele>
        <time>2015-02-25T12:23:41Z</time>
      </trkpt>
      <trkpt lat="45.66575" lon="5.99782">
        <ele>1378</ele>
        <time>2015-02-25T12:23:53Z</time>
      </trkpt>
      <trkpt lat="45.66573" lon="5.99755">
        <ele>1378</ele>
        <time>2015-02-25T12:24:03Z</time>
      </trkpt>
      <trkpt lat="45.66571" lon="5.9973">
        <ele>1378</ele>
        <time>2015-02-25T12:24:12Z</time>
      </trkpt>
      <trkpt lat="45.66567" lon="5.99702">
        <ele>1378</ele>
        <time>2015-02-25T12:24:18Z</time>
      </trkpt>
      <trkpt lat="45.66568" lon="5.99673">
        <ele>1377</ele>
        <time>2015-02-25T12:24:27Z</time>
      </trkpt>
      <trkpt lat="45.66565" lon="5.99646">
        <ele>1377</ele>
        <time>2015-02-25T12:24:37Z</time>
      </trkpt>
      <trkpt lat="45.66574" lon="5.99623">
        <ele>1377</ele>
        <time>2015-02-25T12:24:52Z</time>
      </trkpt>
      <trkpt lat="45.66577" lon="5.99595">
        <ele>1376</ele>
        <time>2015-02-25T12:25:05Z</time>
      </trkpt>
      <trkpt lat="45.66577" lon="5.99567">
        <ele>1375</ele>
        <time>2015-02-25T12:25:13Z</time>
      </trkpt>
      <trkpt lat="45.66581" lon="5.99539">
        <ele>1375</ele>
        <time>2015-02-25T12:25:22Z</time>
      </trkpt>
      <trkpt lat="45.66584" lon="5.99512">
        <ele>1375</ele>
        <time>2015-02-25T12:25:32Z</time>
      </trkpt>
      <trkpt lat="45.66584" lon="5.99485">
        <ele>1375</ele>
        <time>2015-02-25T12:25:40Z</time>
      </trkpt>
      <trkpt lat="45.66589" lon="5.9946">
        <ele>1376</ele>
        <time>2015-02-25T12:25:56Z</time>
      </trkpt>
      <trkpt lat="45.66592" lon="5.99432">
        <ele>1376</ele>
        <time>2015-02-25T12:26:16Z</time>
      </trkpt>
      <trkpt lat="45.66597" lon="5.99406">
        <ele>1376</ele>
        <time>2015-02-25T12:26:39Z</time>
      </trkpt>
      <trkpt lat="45.66601" lon="5.99381">
        <ele>1377</ele>
        <time>2015-02-25T12:26:54Z</time>
      </trkpt>
      <trkpt lat="45.66608" lon="5.99354">
        <ele>1377</ele>
        <time>2015-02-25T12:27:08Z</time>
      </trkpt>
      <trkpt lat="45.66613" lon="5.99329">
        <ele>1379</ele>
        <time>2015-02-25T12:27:26Z</time>
      </trkpt>
      <trkpt lat="45.66622" lon="5.99307">
        <ele>1379</ele>
        <time>2015-02-25T12:27:43Z</time>
      </trkpt>
      <trkpt lat="45.66636" lon="5.99288">
        <ele>1379</ele>
        <time>2015-02-25T12:27:59Z</time>
      </trkpt>
      <trkpt lat="45.66647" lon="5.99268">
        <ele>1380</ele>
        <time>2015-02-25T12:28:17Z</time>
      </trkpt>
      <trkpt lat="45.66665" lon="5.99262">
        <ele>1380</ele>
        <time>2015-02-25T12:28:34Z</time>
      </trkpt>
      <trkpt lat="45.66683" lon="5.99255">
        <ele>1382</ele>
        <time>2015-02-25T12:28:56Z</time>
      </trkpt>
      <trkpt lat="45.66702" lon="5.99251">
        <ele>1382</ele>
        <time>2015-02-25T12:29:11Z</time>
      </trkpt>
      <trkpt lat="45.66717" lon="5.99233">
        <ele>1382</ele>
        <time>2015-02-25T12:29:19Z</time>
      </trkpt>
      <trkpt lat="45.66728" lon="5.9921">
        <ele>1382</ele>
        <time>2015-02-25T12:29:33Z</time>
      </trkpt>
      <trkpt lat="45.6673" lon="5.99184">
        <ele>1382</ele>
        <time>2015-02-25T12:29:53Z</time>
      </trkpt>
      <trkpt lat="45.66731" lon="5.99158">
        <ele>1382</ele>
        <time>2015-02-25T12:30:09Z</time>
      </trkpt>
      <trkpt lat="45.66725" lon="5.99133">
        <ele>1382</ele>
        <time>2015-02-25T12:30:24Z</time>
      </trkpt>
      <trkpt lat="45.66721" lon="5.99106">
        <ele>1383</ele>
        <time>2015-02-25T12:30:31Z</time>
      </trkpt>
      <trkpt lat="45.66726" lon="5.99081">
        <ele>1384</ele>
        <time>2015-02-25T12:30:43Z</time>
      </trkpt>
      <trkpt lat="45.66739" lon="5.99062">
        <ele>1384</ele>
        <time>2015-02-25T12:30:56Z</time>
      </trkpt>
      <trkpt lat="45.66754" lon="5.99046">
        <ele>1384</ele>
        <time>2015-02-25T12:31:10Z</time>
      </trkpt>
      <trkpt lat="45.6677" lon="5.99035">
        <ele>1385</ele>
        <time>2015-02-25T12:31:23Z</time>
      </trkpt>
      <trkpt lat="45.66782" lon="5.99014">
        <ele>1385</ele>
        <time>2015-02-25T12:31:36Z</time>
      </trkpt>
      <trkpt lat="45.66779" lon="5.98988">
        <ele>1387</ele>
        <time>2015-02-25T12:31:46Z</time>
      </trkpt>
      <trkpt lat="45.66779" lon="5.98961">
        <ele>1387</ele>
        <time>2015-02-25T12:32:00Z</time>
      </trkpt>
      <trkpt lat="45.66778" lon="5.98934">
        <ele>1388</ele>
        <time>2015-02-25T12:32:21Z</time>
      </trkpt>
      <trkpt lat="45.66772" lon="5.9891">
        <ele>1390</ele>
        <time>2015-02-25T12:32:39Z</time>
      </trkpt>
      <trkpt lat="45.6676" lon="5.9889">
        <ele>1390</ele>
        <time>2015-02-25T12:33:00Z</time>
      </trkpt>
      <trkpt lat="45.66748" lon="5.98869">
        <ele>1389</ele>
        <time>2015-02-25T12:33:10Z</time>
      </trkpt>
      <trkpt lat="45.66738" lon="5.98847">
        <ele>1389</ele>
        <time>2015-02-25T12:33:18Z</time>
      </trkpt>
      <trkpt lat="45.66726" lon="5.98827">
        <ele>1389</ele>
        <time>2015-02-25T12:33:33Z</time>
      </trkpt>
      <trkpt lat="45.66717" lon="5.98804">
        <ele>1389</ele>
        <time>2015-02-25T12:33:45Z</time>
      </trkpt>
      <trkpt lat="45.66705" lon="5.98779">
        <ele>1388</ele>
        <time>2015-02-25T12:33:53Z</time>
      </trkpt>
      <trkpt lat="45.66696" lon="5.98757">
        <ele>1387</ele>
        <time>2015-02-25T12:33:59Z</time>
      </trkpt>
      <trkpt lat="45.6669" lon="5.9873">
        <ele>1385</ele>
        <time>2015-02-25T12:34:06Z</time>
      </trkpt>
      <trkpt lat="45.66684" lon="5.987">
        <ele>1385</ele>
        <time>2015-02-25T12:34:12Z</time>
      </trkpt>
      <trkpt lat="45.66684" lon="5.98674">
        <ele>1383</ele>
        <time>2015-02-25T12:34:48Z</time>
      </trkpt>
      <trkpt lat="45.66698" lon="5.98659">
        <ele>1384</ele>
        <time>2015-02-25T12:36:10Z</time>
      </trkpt>
      <trkpt lat="45.66717" lon="5.98651">
        <ele>1386</ele>
        <time>2015-02-25T12:36:24Z</time>
      </trkpt>
      <trkpt lat="45.66732" lon="5.98637">
        <ele>1387</ele>
        <time>2015-02-25T12:36:42Z</time>
      </trkpt>
      <trkpt lat="45.6675" lon="5.98641">
        <ele>1394</ele>
        <time>2015-02-25T12:37:10Z</time>
      </trkpt>
      <trkpt lat="45.66769" lon="5.9864">
        <ele>1395</ele>
        <time>2015-02-25T12:37:33Z</time>
      </trkpt>
      <trkpt lat="45.66784" lon="5.98653">
        <ele>1396</ele>
        <time>2015-02-25T12:37:53Z</time>
      </trkpt>
      <trkpt lat="45.66799" lon="5.98668">
        <ele>1397</ele>
        <time>2015-02-25T12:38:22Z</time>
      </trkpt>
      <trkpt lat="45.66813" lon="5.98685">
        <ele>1398</ele>
        <time>2015-02-25T12:38:46Z</time>
      </trkpt>
      <trkpt lat="45.66825" lon="5.98706">
        <ele>1398</ele>
        <time>2015-02-25T12:39:03Z</time>
      </trkpt>
      <trkpt lat="45.66835" lon="5.9873">
        <ele>1403</ele>
        <time>2015-02-25T12:39:16Z</time>
      </trkpt>
      <trkpt lat="45.66854" lon="5.98741">
        <ele>1403</ele>
        <time>2015-02-25T12:39:31Z</time>
      </trkpt>
      <trkpt lat="45.66872" lon="5.98745">
        <ele>1404</ele>
        <time>2015-02-25T12:39:45Z</time>
      </trkpt>
      <trkpt lat="45.66887" lon="5.98763">
        <ele>1403</ele>
        <time>2015-02-25T12:39:57Z</time>
      </trkpt>
      <trkpt lat="45.66905" lon="5.98762">
        <ele>1404</ele>
        <time>2015-02-25T12:40:08Z</time>
      </trkpt>
      <trkpt lat="45.66924" lon="5.98767">
        <ele>1406</ele>
        <time>2015-02-25T12:40:32Z</time>
      </trkpt>
      <trkpt lat="45.66942" lon="5.98774">
        <ele>1407</ele>
        <time>2015-02-25T12:40:44Z</time>
      </trkpt>
      <trkpt lat="45.6696" lon="5.98778">
        <ele>1408</ele>
        <time>2015-02-25T12:41:00Z</time>
      </trkpt>
      <trkpt lat="45.66977" lon="5.98768">
        <ele>1409</ele>
        <time>2015-02-25T12:41:19Z</time>
      </trkpt>
      <trkpt lat="45.66996" lon="5.98769">
        <ele>1410</ele>
        <time>2015-02-25T12:41:52Z</time>
      </trkpt>
      <trkpt lat="45.67013" lon="5.98777">
        <ele>1413</ele>
        <time>2015-02-25T12:42:23Z</time>
      </trkpt>
      <trkpt lat="45.6703" lon="5.98788">
        <ele>1414</ele>
        <time>2015-02-25T12:42:45Z</time>
      </trkpt>
      <trkpt lat="45.67051" lon="5.98801">
        <ele>1414</ele>
        <time>2015-02-25T12:42:56Z</time>
      </trkpt>
      <trkpt lat="45.67066" lon="5.98817">
        <ele>1414</ele>
        <time>2015-02-25T12:43:00Z</time>
      </trkpt>
      <trkpt lat="45.6708" lon="5.98834">
        <ele>1414</ele>
        <time>2015-02-25T12:43:12Z</time>
      </trkpt>
      <trkpt lat="45.67092" lon="5.98854">
        <ele>1413</ele>
        <time>2015-02-25T12:43:22Z</time>
      </trkpt>
      <trkpt lat="45.67109" lon="5.98868">
        <ele>1413</ele>
        <time>2015-02-25T12:43:33Z</time>
      </trkpt>
      <trkpt lat="45.67128" lon="5.98869">
        <ele>1413</ele>
        <time>2015-02-25T12:44:40Z</time>
      </trkpt>
      <trkpt lat="45.67146" lon="5.98866">
        <ele>1414</ele>
        <time>2015-02-25T12:44:57Z</time>
      </trkpt>
      <trkpt lat="45.67164" lon="5.98856">
        <ele>1415</ele>
        <time>2015-02-25T12:45:21Z</time>
      </trkpt>
      <trkpt lat="45.6718" lon="5.98843">
        <ele>1417</ele>
        <time>2015-02-25T12:45:44Z</time>
      </trkpt>
      <trkpt lat="45.67196" lon="5.98858">
        <ele>1416</ele>
        <time>2015-02-25T12:45:59Z</time>
      </trkpt>
      <trkpt lat="45.67205" lon="5.98883">
        <ele>1416</ele>
        <time>2015-02-25T12:46:08Z</time>
      </trkpt>
      <trkpt lat="45.67213" lon="5.98907">
        <ele>1416</ele>
        <time>2015-02-25T12:46:16Z</time>
      </trkpt>
      <trkpt lat="45.6723" lon="5.98922">
        <ele>1414</ele>
        <time>2015-02-25T12:46:32Z</time>
      </trkpt>
      <trkpt lat="45.67246" lon="5.98939">
        <ele>1414</ele>
        <time>2015-02-25T12:46:37Z</time>
      </trkpt>
      <trkpt lat="45.67261" lon="5.98956">
        <ele>1414</ele>
        <time>2015-02-25T12:46:44Z</time>
      </trkpt>
      <trkpt lat="45.67275" lon="5.98972">
        <ele>1414</ele>
        <time>2015-02-25T12:46:58Z</time>
      </trkpt>
      <trkpt lat="45.67293" lon="5.98974">
        <ele>1414</ele>
        <time>2015-02-25T12:47:06Z</time>
      </trkpt>
      <trkpt lat="45.67311" lon="5.98974">
        <ele>1414</ele>
        <time>2015-02-25T12:47:08Z</time>
      </trkpt>
      <trkpt lat="45.67333" lon="5.98967">
        <ele>1414</ele>
        <time>2015-02-25T12:47:13Z</time>
      </trkpt>
      <trkpt lat="45.67351" lon="5.98963">
        <ele>1412</ele>
        <time>2015-02-25T12:47:19Z</time>
      </trkpt>
      <trkpt lat="45.67368" lon="5.98953">
        <ele>1411</ele>
        <time>2015-02-25T12:47:34Z</time>
      </trkpt>
      <trkpt lat="45.67385" lon="5.98945">
        <ele>1411</ele>
        <time>2015-02-25T12:47:41Z</time>
      </trkpt>
      <trkpt lat="45.67404" lon="5.98929">
        <ele>1411</ele>
        <time>2015-02-25T12:47:47Z</time>
      </trkpt>
      <trkpt lat="45.67417" lon="5.9891">
        <ele>1413</ele>
        <time>2015-02-25T12:47:53Z</time>
      </trkpt>
      <trkpt lat="45.67431" lon="5.98887">
        <ele>1412</ele>
        <time>2015-02-25T12:48:01Z</time>
      </trkpt>
      <trkpt lat="45.67439" lon="5.98859">
        <ele>1412</ele>
        <time>2015-02-25T12:48:05Z</time>
      </trkpt>
      <trkpt lat="45.67437" lon="5.98831">
        <ele>1413</ele>
        <time>2015-02-25T12:48:11Z</time>
      </trkpt>
      <trkpt lat="45.67437" lon="5.98802">
        <ele>1412</ele>
        <time>2015-02-25T12:48:25Z</time>
      </trkpt>
      <trkpt lat="45.67433" lon="5.98762">
        <ele>1412</ele>
        <time>2015-02-25T12:48:27Z</time>
      </trkpt>
      <trkpt lat="45.67427" lon="5.98737">
        <ele>1412</ele>
        <time>2015-02-25T12:48:29Z</time>
      </trkpt>
      <trkpt lat="45.67419" lon="5.98711">
        <ele>1412</ele>
        <time>2015-02-25T12:48:34Z</time>
      </trkpt>
      <trkpt lat="45.67421" lon="5.98685">
        <ele>1412</ele>
        <time>2015-02-25T12:49:04Z</time>
      </trkpt>
      <trkpt lat="45.67422" lon="5.98659">
        <ele>1412</ele>
        <time>2015-02-25T12:49:25Z</time>
      </trkpt>
      <trkpt lat="45.67422" lon="5.98632">
        <ele>1414</ele>
        <time>2015-02-25T12:49:43Z</time>
      </trkpt>
      <trkpt lat="45.67427" lon="5.98607">
        <ele>1415</ele>
        <time>2015-02-25T12:53:45Z</time>
      </trkpt>
      <trkpt lat="45.67447" lon="5.98601">
        <ele>1416</ele>
        <time>2015-02-25T12:53:54Z</time>
      </trkpt>
      <trkpt lat="45.67462" lon="5.98616">
        <ele>1416</ele>
        <time>2015-02-25T12:54:03Z</time>
      </trkpt>
      <trkpt lat="45.67472" lon="5.98642">
        <ele>1415</ele>
        <time>2015-02-25T12:54:11Z</time>
      </trkpt>
      <trkpt lat="45.67483" lon="5.98663">
        <ele>1415</ele>
        <time>2015-02-25T12:54:18Z</time>
      </trkpt>
      <trkpt lat="45.67495" lon="5.98687">
        <ele>1413</ele>
        <time>2015-02-25T12:54:26Z</time>
      </trkpt>
      <trkpt lat="45.67499" lon="5.98714">
        <ele>1412</ele>
        <time>2015-02-25T12:54:33Z</time>
      </trkpt>
      <trkpt lat="45.67503" lon="5.98741">
        <ele>1414</ele>
        <time>2015-02-25T12:54:43Z</time>
      </trkpt>
      <trkpt lat="45.67509" lon="5.98766">
        <ele>1415</ele>
        <time>2015-02-25T12:54:59Z</time>
      </trkpt>
      <trkpt lat="45.67515" lon="5.98793">
        <ele>1416</ele>
        <time>2015-02-25T12:55:13Z</time>
      </trkpt>
      <trkpt lat="45.67511" lon="5.98823">
        <ele>1414</ele>
        <time>2015-02-25T12:55:24Z</time>
      </trkpt>
      <trkpt lat="45.67509" lon="5.98848">
        <ele>1414</ele>
        <time>2015-02-25T12:55:29Z</time>
      </trkpt>
      <trkpt lat="45.67509" lon="5.98876">
        <ele>1414</ele>
        <time>2015-02-25T12:55:36Z</time>
      </trkpt>
      <trkpt lat="45.6752" lon="5.98902">
        <ele>1414</ele>
        <time>2015-02-25T12:55:43Z</time>
      </trkpt>
      <trkpt lat="45.67528" lon="5.98928">
        <ele>1411</ele>
        <time>2015-02-25T12:55:50Z</time>
      </trkpt>
      <trkpt lat="45.67536" lon="5.98952">
        <ele>1410</ele>
        <time>2015-02-25T12:55:57Z</time>
      </trkpt>
      <trkpt lat="45.67546" lon="5.98975">
        <ele>1410</ele>
        <time>2015-02-25T12:56:03Z</time>
      </trkpt>
      <trkpt lat="45.67556" lon="5.98996">
        <ele>1410</ele>
        <time>2015-02-25T12:56:08Z</time>
      </trkpt>
      <trkpt lat="45.67566" lon="5.99023">
        <ele>1405</ele>
        <time>2015-02-25T12:56:13Z</time>
      </trkpt>
      <trkpt lat="45.67576" lon="5.9905">
        <ele>1404</ele>
        <time>2015-02-25T12:56:15Z</time>
      </trkpt>
      <trkpt lat="45.6759" lon="5.99079">
        <ele>1408</ele>
        <time>2015-02-25T12:56:18Z</time>
      </trkpt>
      <trkpt lat="45.67597" lon="5.99108">
        <ele>1406</ele>
        <time>2015-02-25T12:56:21Z</time>
      </trkpt>
      <trkpt lat="45.676" lon="5.99138">
        <ele>1404</ele>
        <time>2015-02-25T12:56:26Z</time>
      </trkpt>
      <trkpt lat="45.67604" lon="5.99167">
        <ele>1399</ele>
        <time>2015-02-25T12:56:32Z</time>
      </trkpt>
      <trkpt lat="45.67619" lon="5.99186">
        <ele>1401</ele>
        <time>2015-02-25T12:56:38Z</time>
      </trkpt>
      <trkpt lat="45.67626" lon="5.99212">
        <ele>1402</ele>
        <time>2015-02-25T12:56:46Z</time>
      </trkpt>
      <trkpt lat="45.67634" lon="5.99236">
        <ele>1402</ele>
        <time>2015-02-25T12:56:59Z</time>
      </trkpt>
      <trkpt lat="45.67643" lon="5.9926">
        <ele>1402</ele>
        <time>2015-02-25T12:57:19Z</time>
      </trkpt>
      <trkpt lat="45.67653" lon="5.99283">
        <ele>1401</ele>
        <time>2015-02-25T12:57:36Z</time>
      </trkpt>
      <trkpt lat="45.67651" lon="5.99314">
        <ele>1401</ele>
        <time>2015-02-25T12:57:42Z</time>
      </trkpt>
      <trkpt lat="45.67647" lon="5.99343">
        <ele>1400</ele>
        <time>2015-02-25T12:57:46Z</time>
      </trkpt>
      <trkpt lat="45.67648" lon="5.9937">
        <ele>1399</ele>
        <time>2015-02-25T12:57:50Z</time>
      </trkpt>
      <trkpt lat="45.67654" lon="5.99395">
        <ele>1399</ele>
        <time>2015-02-25T12:57:57Z</time>
      </trkpt>
      <trkpt lat="45.6767" lon="5.99409">
        <ele>1400</ele>
        <time>2015-02-25T12:58:04Z</time>
      </trkpt>
      <trkpt lat="45.67683" lon="5.9943">
        <ele>1399</ele>
        <time>2015-02-25T12:58:10Z</time>
      </trkpt>
      <trkpt lat="45.67689" lon="5.99456">
        <ele>1399</ele>
        <time>2015-02-25T12:58:17Z</time>
      </trkpt>
      <trkpt lat="45.67697" lon="5.99481">
        <ele>1399</ele>
        <time>2015-02-25T12:58:30Z</time>
      </trkpt>
      <trkpt lat="45.67709" lon="5.99507">
        <ele>1398</ele>
        <time>2015-02-25T12:58:37Z</time>
      </trkpt>
      <trkpt lat="45.67721" lon="5.99528">
        <ele>1398</ele>
        <time>2015-02-25T12:58:43Z</time>
      </trkpt>
      <trkpt lat="45.67733" lon="5.99549">
        <ele>1398</ele>
        <time>2015-02-25T12:58:51Z</time>
      </trkpt>
      <trkpt lat="45.67747" lon="5.99565">
        <ele>1397</ele>
        <time>2015-02-25T12:58:58Z</time>
      </trkpt>
      <trkpt lat="45.6776" lon="5.99584">
        <ele>1397</ele>
        <time>2015-02-25T12:59:17Z</time>
      </trkpt>
      <trkpt lat="45.67777" lon="5.99594">
        <ele>1398</ele>
        <time>2015-02-25T12:59:30Z</time>
      </trkpt>
      <trkpt lat="45.67791" lon="5.99613">
        <ele>1398</ele>
        <time>2015-02-25T12:59:44Z</time>
      </trkpt>
      <trkpt lat="45.67802" lon="5.99635">
        <ele>1397</ele>
        <time>2015-02-25T12:59:57Z</time>
      </trkpt>
      <trkpt lat="45.67812" lon="5.99658">
        <ele>1397</ele>
        <time>2015-02-25T13:00:08Z</time>
      </trkpt>
      <trkpt lat="45.6782" lon="5.99696">
        <ele>1395</ele>
        <time>2015-02-25T13:00:13Z</time>
      </trkpt>
      <trkpt lat="45.6782" lon="5.9973">
        <ele>1395</ele>
        <time>2015-02-25T13:00:16Z</time>
      </trkpt>
      <trkpt lat="45.6782" lon="5.99758">
        <ele>1393</ele>
        <time>2015-02-25T13:00:20Z</time>
      </trkpt>
      <trkpt lat="45.67824" lon="5.99785">
        <ele>1392</ele>
        <time>2015-02-25T13:00:29Z</time>
      </trkpt>
      <trkpt lat="45.67829" lon="5.9981">
        <ele>1391</ele>
        <time>2015-02-25T13:02:37Z</time>
      </trkpt>
      <trkpt lat="45.67842" lon="5.99827">
        <ele>1392</ele>
        <time>2015-02-25T13:02:53Z</time>
      </trkpt>
      <trkpt lat="45.67837" lon="5.99854">
        <ele>1390</ele>
        <time>2015-02-25T13:03:11Z</time>
      </trkpt>
      <trkpt lat="45.67841" lon="5.9988">
        <ele>1388</ele>
        <time>2015-02-25T13:03:39Z</time>
      </trkpt>
      <trkpt lat="45.67857" lon="5.99893">
        <ele>1388</ele>
        <time>2015-02-25T13:03:52Z</time>
      </trkpt>
      <trkpt lat="45.67872" lon="5.99875">
        <ele>1389</ele>
        <time>2015-02-25T13:05:26Z</time>
      </trkpt>
      <trkpt lat="45.67859" lon="5.99895">
        <ele>1388</ele>
        <time>2015-02-25T13:43:27Z</time>
      </trkpt>
      <trkpt lat="45.67858" lon="5.99924">
        <ele>1388</ele>
        <time>2015-02-25T13:43:33Z</time>
      </trkpt>
      <trkpt lat="45.67875" lon="5.99907">
        <ele>1388</ele>
        <time>2015-02-25T13:43:47Z</time>
      </trkpt>
      <trkpt lat="45.67883" lon="5.99872">
        <ele>1389</ele>
        <time>2015-02-25T13:44:09Z</time>
      </trkpt>
      <trkpt lat="45.67876" lon="5.99897">
        <ele>1388</ele>
        <time>2015-02-25T13:44:23Z</time>
      </trkpt>
      <trkpt lat="45.67873" lon="5.9987">
        <ele>1389</ele>
        <time>2015-02-25T13:44:38Z</time>
      </trkpt>
      <trkpt lat="45.67883" lon="5.99846">
        <ele>1389</ele>
        <time>2015-02-25T13:44:43Z</time>
      </trkpt>
      <trkpt lat="45.67872" lon="5.99902">
        <ele>1388</ele>
        <time>2015-02-25T13:45:14Z</time>
      </trkpt>
      <trkpt lat="45.67882" lon="5.99854">
        <ele>1389</ele>
        <time>2015-02-25T13:45:15Z</time>
      </trkpt>
      <trkpt lat="45.67869" lon="5.99921">
        <ele>1388</ele>
        <time>2015-02-25T13:45:59Z</time>
      </trkpt>
      <trkpt lat="45.67873" lon="5.99885">
        <ele>1388</ele>
        <time>2015-02-25T13:47:49Z</time>
      </trkpt>
      <trkpt lat="45.67855" lon="5.99878">
        <ele>1389</ele>
        <time>2015-02-25T13:49:38Z</time>
      </trkpt>
      <trkpt lat="45.67869" lon="5.99896">
        <ele>1388</ele>
        <time>2015-02-25T13:59:02Z</time>
      </trkpt>
      <trkpt lat="45.67886" lon="5.99887">
        <ele>1388</ele>
        <time>2015-02-25T14:00:10Z</time>
      </trkpt>
      <trkpt lat="45.67896" lon="5.99865">
        <ele>1389</ele>
        <time>2015-02-25T14:01:07Z</time>
      </trkpt>
      <trkpt lat="45.67906" lon="5.99844">
        <ele>1390</ele>
        <time>2015-02-25T14:01:39Z</time>
      </trkpt>
      <trkpt lat="45.67925" lon="5.99849">
        <ele>1388</ele>
        <time>2015-02-25T14:02:06Z</time>
      </trkpt>
      <trkpt lat="45.6794" lon="5.99834">
        <ele>1387</ele>
        <time>2015-02-25T14:02:13Z</time>
      </trkpt>
      <trkpt lat="45.67944" lon="5.99805">
        <ele>1389</ele>
        <time>2015-02-25T14:02:21Z</time>
      </trkpt>
      <trkpt lat="45.67958" lon="5.99787">
        <ele>1388</ele>
        <time>2015-02-25T14:02:26Z</time>
      </trkpt>
      <trkpt lat="45.67974" lon="5.9977">
        <ele>1388</ele>
        <time>2015-02-25T14:02:30Z</time>
      </trkpt>
      <trkpt lat="45.67989" lon="5.99755">
        <ele>1387</ele>
        <time>2015-02-25T14:02:34Z</time>
      </trkpt>
      <trkpt lat="45.68004" lon="5.99739">
        <ele>1387</ele>
        <time>2015-02-25T14:02:51Z</time>
      </trkpt>
      <trkpt lat="45.68023" lon="5.99728">
        <ele>1388</ele>
        <time>2015-02-25T14:02:58Z</time>
      </trkpt>
      <trkpt lat="45.6804" lon="5.99712">
        <ele>1388</ele>
        <time>2015-02-25T14:03:14Z</time>
      </trkpt>
      <trkpt lat="45.68055" lon="5.99697">
        <ele>1388</ele>
        <time>2015-02-25T14:03:36Z</time>
      </trkpt>
      <trkpt lat="45.68057" lon="5.9967">
        <ele>1389</ele>
        <time>2015-02-25T14:04:03Z</time>
      </trkpt>
      <trkpt lat="45.68055" lon="5.99644">
        <ele>1392</ele>
        <time>2015-02-25T14:04:23Z</time>
      </trkpt>
      <trkpt lat="45.68059" lon="5.99618">
        <ele>1392</ele>
        <time>2015-02-25T14:04:42Z</time>
      </trkpt>
      <trkpt lat="45.68063" lon="5.99592">
        <ele>1392</ele>
        <time>2015-02-25T14:05:05Z</time>
      </trkpt>
      <trkpt lat="45.6806" lon="5.99566">
        <ele>1395</ele>
        <time>2015-02-25T14:05:19Z</time>
      </trkpt>
      <trkpt lat="45.68055" lon="5.9954">
        <ele>1395</ele>
        <time>2015-02-25T14:05:29Z</time>
      </trkpt>
      <trkpt lat="45.68051" lon="5.99514">
        <ele>1396</ele>
        <time>2015-02-25T14:05:45Z</time>
      </trkpt>
      <trkpt lat="45.68048" lon="5.99488">
        <ele>1399</ele>
        <time>2015-02-25T14:06:06Z</time>
      </trkpt>
      <trkpt lat="45.6805" lon="5.99462">
        <ele>1400</ele>
        <time>2015-02-25T14:06:32Z</time>
      </trkpt>
      <trkpt lat="45.68051" lon="5.99435">
        <ele>1401</ele>
        <time>2015-02-25T14:06:55Z</time>
      </trkpt>
      <trkpt lat="45.68062" lon="5.99414">
        <ele>1405</ele>
        <time>2015-02-25T14:07:06Z</time>
      </trkpt>
      <trkpt lat="45.68071" lon="5.99391">
        <ele>1405</ele>
        <time>2015-02-25T14:07:14Z</time>
      </trkpt>
      <trkpt lat="45.68074" lon="5.99364">
        <ele>1406</ele>
        <time>2015-02-25T14:07:28Z</time>
      </trkpt>
      <trkpt lat="45.68077" lon="5.99338">
        <ele>1407</ele>
        <time>2015-02-25T14:07:49Z</time>
      </trkpt>
      <trkpt lat="45.68081" lon="5.99311">
        <ele>1409</ele>
        <time>2015-02-25T14:08:05Z</time>
      </trkpt>
      <trkpt lat="45.68078" lon="5.99284">
        <ele>1411</ele>
        <time>2015-02-25T14:08:17Z</time>
      </trkpt>
      <trkpt lat="45.68072" lon="5.99259">
        <ele>1411</ele>
        <time>2015-02-25T14:08:33Z</time>
      </trkpt>
      <trkpt lat="45.68063" lon="5.99236">
        <ele>1415</ele>
        <time>2015-02-25T14:08:45Z</time>
      </trkpt>
      <trkpt lat="45.68052" lon="5.99216">
        <ele>1416</ele>
        <time>2015-02-25T14:09:03Z</time>
      </trkpt>
      <trkpt lat="45.68037" lon="5.992">
        <ele>1417</ele>
        <time>2015-02-25T14:09:24Z</time>
      </trkpt>
      <trkpt lat="45.68021" lon="5.99187">
        <ele>1417</ele>
        <time>2015-02-25T14:09:46Z</time>
      </trkpt>
      <trkpt lat="45.68004" lon="5.99177">
        <ele>1419</ele>
        <time>2015-02-25T14:10:09Z</time>
      </trkpt>
      <trkpt lat="45.68011" lon="5.99153">
        <ele>1421</ele>
        <time>2015-02-25T14:10:35Z</time>
      </trkpt>
      <trkpt lat="45.68029" lon="5.99141">
        <ele>1421</ele>
        <time>2015-02-25T14:10:49Z</time>
      </trkpt>
      <trkpt lat="45.68047" lon="5.99134">
        <ele>1421</ele>
        <time>2015-02-25T14:10:55Z</time>
      </trkpt>
      <trkpt lat="45.68065" lon="5.9913">
        <ele>1421</ele>
        <time>2015-02-25T14:11:07Z</time>
      </trkpt>
      <trkpt lat="45.68083" lon="5.99122">
        <ele>1422</ele>
        <time>2015-02-25T14:11:24Z</time>
      </trkpt>
      <trkpt lat="45.68099" lon="5.99108">
        <ele>1422</ele>
        <time>2015-02-25T14:11:42Z</time>
      </trkpt>
      <trkpt lat="45.68108" lon="5.99084">
        <ele>1422</ele>
        <time>2015-02-25T14:12:04Z</time>
      </trkpt>
      <trkpt lat="45.68123" lon="5.99066">
        <ele>1426</ele>
        <time>2015-02-25T14:12:16Z</time>
      </trkpt>
      <trkpt lat="45.68142" lon="5.99058">
        <ele>1425</ele>
        <time>2015-02-25T14:12:23Z</time>
      </trkpt>
      <trkpt lat="45.68158" lon="5.99048">
        <ele>1426</ele>
        <time>2015-02-25T14:12:29Z</time>
      </trkpt>
      <trkpt lat="45.68172" lon="5.9903">
        <ele>1426</ele>
        <time>2015-02-25T14:12:41Z</time>
      </trkpt>
      <trkpt lat="45.68182" lon="5.99009">
        <ele>1427</ele>
        <time>2015-02-25T14:13:01Z</time>
      </trkpt>
      <trkpt lat="45.68196" lon="5.98991">
        <ele>1432</ele>
        <time>2015-02-25T14:13:20Z</time>
      </trkpt>
      <trkpt lat="45.68209" lon="5.98973">
        <ele>1433</ele>
        <time>2015-02-25T14:13:36Z</time>
      </trkpt>
      <trkpt lat="45.68223" lon="5.98956">
        <ele>1433</ele>
        <time>2015-02-25T14:13:54Z</time>
      </trkpt>
      <trkpt lat="45.68237" lon="5.98937">
        <ele>1434</ele>
        <time>2015-02-25T14:14:10Z</time>
      </trkpt>
      <trkpt lat="45.68248" lon="5.98916">
        <ele>1435</ele>
        <time>2015-02-25T14:14:29Z</time>
      </trkpt>
      <trkpt lat="45.68257" lon="5.98892">
        <ele>1434</ele>
        <time>2015-02-25T14:14:48Z</time>
      </trkpt>
      <trkpt lat="45.68261" lon="5.98865">
        <ele>1434</ele>
        <time>2015-02-25T14:14:57Z</time>
      </trkpt>
      <trkpt lat="45.68259" lon="5.98839">
        <ele>1436</ele>
        <time>2015-02-25T14:15:05Z</time>
      </trkpt>
      <trkpt lat="45.68255" lon="5.98813">
        <ele>1437</ele>
        <time>2015-02-25T14:15:16Z</time>
      </trkpt>
      <trkpt lat="45.68249" lon="5.98787">
        <ele>1448</ele>
        <time>2015-02-25T14:15:28Z</time>
      </trkpt>
      <trkpt lat="45.68247" lon="5.9876">
        <ele>1446</ele>
        <time>2015-02-25T14:15:41Z</time>
      </trkpt>
      <trkpt lat="45.68252" lon="5.98734">
        <ele>1441</ele>
        <time>2015-02-25T14:15:48Z</time>
      </trkpt>
      <trkpt lat="45.68256" lon="5.98709">
        <ele>1441</ele>
        <time>2015-02-25T14:15:58Z</time>
      </trkpt>
      <trkpt lat="45.68251" lon="5.98684">
        <ele>1442</ele>
        <time>2015-02-25T14:19:55Z</time>
      </trkpt>
      <trkpt lat="45.68247" lon="5.98657">
        <ele>1450</ele>
        <time>2015-02-25T14:20:24Z</time>
      </trkpt>
      <trkpt lat="45.68242" lon="5.98632">
        <ele>1456</ele>
        <time>2015-02-25T14:20:46Z</time>
      </trkpt>
      <trkpt lat="45.68238" lon="5.98606">
        <ele>1456</ele>
        <time>2015-02-25T14:21:03Z</time>
      </trkpt>
      <trkpt lat="45.6823" lon="5.98581">
        <ele>1456</ele>
        <time>2015-02-25T14:21:24Z</time>
      </trkpt>
      <trkpt lat="45.68219" lon="5.9856">
        <ele>1459</ele>
        <time>2015-02-25T14:21:44Z</time>
      </trkpt>
      <trkpt lat="45.68209" lon="5.98534">
        <ele>1461</ele>
        <time>2015-02-25T14:21:55Z</time>
      </trkpt>
      <trkpt lat="45.682" lon="5.98509">
        <ele>1461</ele>
        <time>2015-02-25T14:22:03Z</time>
      </trkpt>
      <trkpt lat="45.68189" lon="5.98488">
        <ele>1461</ele>
        <time>2015-02-25T14:22:12Z</time>
      </trkpt>
      <trkpt lat="45.68176" lon="5.9847">
        <ele>1461</ele>
        <time>2015-02-25T14:22:29Z</time>
      </trkpt>
      <trkpt lat="45.68163" lon="5.9845">
        <ele>1466</ele>
        <time>2015-02-25T14:22:48Z</time>
      </trkpt>
      <trkpt lat="45.68153" lon="5.98428">
        <ele>1463</ele>
        <time>2015-02-25T14:23:03Z</time>
      </trkpt>
      <trkpt lat="45.68143" lon="5.98404">
        <ele>1461</ele>
        <time>2015-02-25T14:23:19Z</time>
      </trkpt>
      <trkpt lat="45.68134" lon="5.98382">
        <ele>1462</ele>
        <time>2015-02-25T14:23:36Z</time>
      </trkpt>
      <trkpt lat="45.68124" lon="5.98359">
        <ele>1462</ele>
        <time>2015-02-25T14:23:51Z</time>
      </trkpt>
      <trkpt lat="45.68108" lon="5.98344">
        <ele>1462</ele>
        <time>2015-02-25T14:24:06Z</time>
      </trkpt>
      <trkpt lat="45.68098" lon="5.98321">
        <ele>1460</ele>
        <time>2015-02-25T14:24:19Z</time>
      </trkpt>
      <trkpt lat="45.68087" lon="5.983">
        <ele>1459</ele>
        <time>2015-02-25T14:24:30Z</time>
      </trkpt>
      <trkpt lat="45.68071" lon="5.98288">
        <ele>1463</ele>
        <time>2015-02-25T14:24:49Z</time>
      </trkpt>
      <trkpt lat="45.68054" lon="5.9828">
        <ele>1463</ele>
        <time>2015-02-25T14:26:16Z</time>
      </trkpt>
      <trkpt lat="45.68037" lon="5.98269">
        <ele>1464</ele>
        <time>2015-02-25T14:26:39Z</time>
      </trkpt>
      <trkpt lat="45.68022" lon="5.98252">
        <ele>1465</ele>
        <time>2015-02-25T14:26:53Z</time>
      </trkpt>
      <trkpt lat="45.68009" lon="5.98233">
        <ele>1463</ele>
        <time>2015-02-25T14:27:14Z</time>
      </trkpt>
      <trkpt lat="45.67997" lon="5.98211">
        <ele>1468</ele>
        <time>2015-02-25T14:27:21Z</time>
      </trkpt>
      <trkpt lat="45.67984" lon="5.98191">
        <ele>1467</ele>
        <time>2015-02-25T14:27:30Z</time>
      </trkpt>
      <trkpt lat="45.67969" lon="5.98176">
        <ele>1468</ele>
        <time>2015-02-25T14:27:52Z</time>
      </trkpt>
      <trkpt lat="45.67952" lon="5.98164">
        <ele>1466</ele>
        <time>2015-02-25T14:28:06Z</time>
      </trkpt>
      <trkpt lat="45.67937" lon="5.98149">
        <ele>1467</ele>
        <time>2015-02-25T14:28:17Z</time>
      </trkpt>
      <trkpt lat="45.67921" lon="5.98132">
        <ele>1467</ele>
        <time>2015-02-25T14:28:24Z</time>
      </trkpt>
      <trkpt lat="45.67904" lon="5.98121">
        <ele>1471</ele>
        <time>2015-02-25T14:28:35Z</time>
      </trkpt>
      <trkpt lat="45.67888" lon="5.98108">
        <ele>1471</ele>
        <time>2015-02-25T14:28:51Z</time>
      </trkpt>
      <trkpt lat="45.67879" lon="5.98082">
        <ele>1465</ele>
        <time>2015-02-25T14:28:58Z</time>
      </trkpt>
      <trkpt lat="45.67868" lon="5.98062">
        <ele>1465</ele>
        <time>2015-02-25T14:29:03Z</time>
      </trkpt>
      <trkpt lat="45.67857" lon="5.98041">
        <ele>1464</ele>
        <time>2015-02-25T14:29:15Z</time>
      </trkpt>
      <trkpt lat="45.67864" lon="5.98016">
        <ele>1462</ele>
        <time>2015-02-25T14:29:31Z</time>
      </trkpt>
      <trkpt lat="45.67874" lon="5.97994">
        <ele>1459</ele>
        <time>2015-02-25T14:30:23Z</time>
      </trkpt>
      <trkpt lat="45.67889" lon="5.9801">
        <ele>1461</ele>
        <time>2015-02-25T14:31:42Z</time>
      </trkpt>
      <trkpt lat="45.67905" lon="5.98024">
        <ele>1461</ele>
        <time>2015-02-25T14:31:56Z</time>
      </trkpt>
      <trkpt lat="45.67922" lon="5.98031">
        <ele>1463</ele>
        <time>2015-02-25T14:32:10Z</time>
      </trkpt>
      <trkpt lat="45.6794" lon="5.98036">
        <ele>1464</ele>
        <time>2015-02-25T14:32:29Z</time>
      </trkpt>
      <trkpt lat="45.67957" lon="5.98046">
        <ele>1465</ele>
        <time>2015-02-25T14:32:50Z</time>
      </trkpt>
      <trkpt lat="45.67975" lon="5.98056">
        <ele>1465</ele>
        <time>2015-02-25T14:33:15Z</time>
      </trkpt>
      <trkpt lat="45.67992" lon="5.98064">
        <ele>1465</ele>
        <time>2015-02-25T14:33:29Z</time>
      </trkpt>
      <trkpt lat="45.68009" lon="5.98074">
        <ele>1468</ele>
        <time>2015-02-25T14:33:48Z</time>
      </trkpt>
      <trkpt lat="45.68027" lon="5.98077">
        <ele>1470</ele>
        <time>2015-02-25T14:34:15Z</time>
      </trkpt>
      <trkpt lat="45.68042" lon="5.98062">
        <ele>1471</ele>
        <time>2015-02-25T14:34:32Z</time>
      </trkpt>
      <trkpt lat="45.6806" lon="5.98054">
        <ele>1472</ele>
        <time>2015-02-25T14:34:53Z</time>
      </trkpt>
      <trkpt lat="45.68078" lon="5.98049">
        <ele>1473</ele>
        <time>2015-02-25T14:35:08Z</time>
      </trkpt>
      <trkpt lat="45.6809" lon="5.98031">
        <ele>1479</ele>
        <time>2015-02-25T14:35:32Z</time>
      </trkpt>
      <trkpt lat="45.68103" lon="5.98012">
        <ele>1479</ele>
        <time>2015-02-25T14:35:57Z</time>
      </trkpt>
      <trkpt lat="45.68118" lon="5.97995">
        <ele>1482</ele>
        <time>2015-02-25T14:36:17Z</time>
      </trkpt>
      <trkpt lat="45.68132" lon="5.97978">
        <ele>1483</ele>
        <time>2015-02-25T14:36:32Z</time>
      </trkpt>
      <trkpt lat="45.68147" lon="5.97964">
        <ele>1484</ele>
        <time>2015-02-25T14:36:53Z</time>
      </trkpt>
      <trkpt lat="45.68156" lon="5.97941">
        <ele>1485</ele>
        <time>2015-02-25T14:37:13Z</time>
      </trkpt>
      <trkpt lat="45.68154" lon="5.97915">
        <ele>1488</ele>
        <time>2015-02-25T14:38:02Z</time>
      </trkpt>
      <trkpt lat="45.68173" lon="5.97917">
        <ele>1488</ele>
        <time>2015-02-25T14:40:34Z</time>
      </trkpt>
      <trkpt lat="45.6819" lon="5.97908">
        <ele>1493</ele>
        <time>2015-02-25T14:40:50Z</time>
      </trkpt>
      <trkpt lat="45.68188" lon="5.9788">
        <ele>1495</ele>
        <time>2015-02-25T14:41:09Z</time>
      </trkpt>
      <trkpt lat="45.68182" lon="5.97855">
        <ele>1496</ele>
        <time>2015-02-25T14:41:22Z</time>
      </trkpt>
      <trkpt lat="45.68176" lon="5.9783">
        <ele>1498</ele>
        <time>2015-02-25T14:41:42Z</time>
      </trkpt>
      <trkpt lat="45.68165" lon="5.97809">
        <ele>1497</ele>
        <time>2015-02-25T14:42:04Z</time>
      </trkpt>
      <trkpt lat="45.68149" lon="5.97797">
        <ele>1498</ele>
        <time>2015-02-25T14:42:24Z</time>
      </trkpt>
      <trkpt lat="45.68131" lon="5.9779">
        <ele>1498</ele>
        <time>2015-02-25T14:42:40Z</time>
      </trkpt>
      <trkpt lat="45.68135" lon="5.97765">
        <ele>1499</ele>
        <time>2015-02-25T14:43:25Z</time>
      </trkpt>
      <trkpt lat="45.68147" lon="5.97745">
        <ele>1504</ele>
        <time>2015-02-25T14:43:47Z</time>
      </trkpt>
      <trkpt lat="45.68162" lon="5.97729">
        <ele>1505</ele>
        <time>2015-02-25T14:44:09Z</time>
      </trkpt>
      <trkpt lat="45.6818" lon="5.97733">
        <ele>1509</ele>
        <time>2015-02-25T14:44:44Z</time>
      </trkpt>
      <trkpt lat="45.68197" lon="5.97738">
        <ele>1510</ele>
        <time>2015-02-25T14:45:16Z</time>
      </trkpt>
      <trkpt lat="45.68214" lon="5.9775">
        <ele>1506</ele>
        <time>2015-02-25T14:46:14Z</time>
      </trkpt>
      <trkpt lat="45.68224" lon="5.97772">
        <ele>1507</ele>
        <time>2015-02-25T14:46:32Z</time>
      </trkpt>
      <trkpt lat="45.68237" lon="5.97789">
        <ele>1506</ele>
        <time>2015-02-25T14:46:45Z</time>
      </trkpt>
      <trkpt lat="45.68249" lon="5.97809">
        <ele>1505</ele>
        <time>2015-02-25T14:47:01Z</time>
      </trkpt>
      <trkpt lat="45.68262" lon="5.9783">
        <ele>1509</ele>
        <time>2015-02-25T14:47:18Z</time>
      </trkpt>
      <trkpt lat="45.68276" lon="5.97849">
        <ele>1508</ele>
        <time>2015-02-25T14:47:28Z</time>
      </trkpt>
      <trkpt lat="45.68288" lon="5.9787">
        <ele>1509</ele>
        <time>2015-02-25T14:49:11Z</time>
      </trkpt>
      <trkpt lat="45.68296" lon="5.97893">
        <ele>1508</ele>
        <time>2015-02-25T14:49:36Z</time>
      </trkpt>
      <trkpt lat="45.68308" lon="5.97913">
        <ele>1509</ele>
        <time>2015-02-25T14:49:51Z</time>
      </trkpt>
      <trkpt lat="45.68322" lon="5.9793">
        <ele>1508</ele>
        <time>2015-02-25T14:55:58Z</time>
      </trkpt>
      <trkpt lat="45.6834" lon="5.97935">
        <ele>1512</ele>
        <time>2015-02-25T14:56:24Z</time>
      </trkpt>
      <trkpt lat="45.68357" lon="5.97925">
        <ele>1512</ele>
        <time>2015-02-25T14:56:42Z</time>
      </trkpt>
      <trkpt lat="45.68374" lon="5.97913">
        <ele>1514</ele>
        <time>2015-02-25T14:57:00Z</time>
      </trkpt>
      <trkpt lat="45.68391" lon="5.97903">
        <ele>1514</ele>
        <time>2015-02-25T14:57:18Z</time>
      </trkpt>
      <trkpt lat="45.68395" lon="5.97877">
        <ele>1514</ele>
        <time>2015-02-25T14:57:49Z</time>
      </trkpt>
      <trkpt lat="45.68377" lon="5.97877">
        <ele>1514</ele>
        <time>2015-02-25T14:58:05Z</time>
      </trkpt>
      <trkpt lat="45.68359" lon="5.97871">
        <ele>1515</ele>
        <time>2015-02-25T14:58:22Z</time>
      </trkpt>
      <trkpt lat="45.68348" lon="5.97849">
        <ele>1516</ele>
        <time>2015-02-25T14:58:40Z</time>
      </trkpt>
      <trkpt lat="45.68337" lon="5.97828">
        <ele>1519</ele>
        <time>2015-02-25T14:58:59Z</time>
      </trkpt>
      <trkpt lat="45.68328" lon="5.97806">
        <ele>1518</ele>
        <time>2015-02-25T14:59:17Z</time>
      </trkpt>
      <trkpt lat="45.68318" lon="5.97783">
        <ele>1519</ele>
        <time>2015-02-25T14:59:41Z</time>
      </trkpt>
      <trkpt lat="45.68309" lon="5.9776">
        <ele>1520</ele>
        <time>2015-02-25T14:59:57Z</time>
      </trkpt>
      <trkpt lat="45.68299" lon="5.97738">
        <ele>1524</ele>
        <time>2015-02-25T15:00:13Z</time>
      </trkpt>
      <trkpt lat="45.68288" lon="5.97717">
        <ele>1524</ele>
        <time>2015-02-25T15:00:32Z</time>
      </trkpt>
      <trkpt lat="45.68279" lon="5.97694">
        <ele>1524</ele>
        <time>2015-02-25T15:00:51Z</time>
      </trkpt>
      <trkpt lat="45.6827" lon="5.9767">
        <ele>1524</ele>
        <time>2015-02-25T15:01:05Z</time>
      </trkpt>
      <trkpt lat="45.6826" lon="5.97649">
        <ele>1527</ele>
        <time>2015-02-25T15:01:23Z</time>
      </trkpt>
      <trkpt lat="45.68247" lon="5.9763">
        <ele>1524</ele>
        <time>2015-02-25T15:01:42Z</time>
      </trkpt>
      <trkpt lat="45.68237" lon="5.97608">
        <ele>1525</ele>
        <time>2015-02-25T15:02:02Z</time>
      </trkpt>
      <trkpt lat="45.68224" lon="5.97588">
        <ele>1526</ele>
        <time>2015-02-25T15:02:20Z</time>
      </trkpt>
      <trkpt lat="45.68209" lon="5.97573">
        <ele>1529</ele>
        <time>2015-02-25T15:02:36Z</time>
      </trkpt>
      <trkpt lat="45.68192" lon="5.97562">
        <ele>1528</ele>
        <time>2015-02-25T15:02:54Z</time>
      </trkpt>
      <trkpt lat="45.68179" lon="5.97544">
        <ele>1528</ele>
        <time>2015-02-25T15:03:12Z</time>
      </trkpt>
      <trkpt lat="45.68169" lon="5.97521">
        <ele>1530</ele>
        <time>2015-02-25T15:03:28Z</time>
      </trkpt>
      <trkpt lat="45.68159" lon="5.975">
        <ele>1529</ele>
        <time>2015-02-25T15:03:44Z</time>
      </trkpt>
      <trkpt lat="45.68176" lon="5.97493">
        <ele>1530</ele>
        <time>2015-02-25T15:04:19Z</time>
      </trkpt>
      <trkpt lat="45.68191" lon="5.97477">
        <ele>1528</ele>
        <time>2015-02-25T15:06:50Z</time>
      </trkpt>
      <trkpt lat="45.68196" lon="5.97452">
        <ele>1527</ele>
        <time>2015-02-25T15:07:08Z</time>
      </trkpt>
      <trkpt lat="45.68191" lon="5.97478">
        <ele>1528</ele>
        <time>2015-02-25T15:09:42Z</time>
      </trkpt>
      <trkpt lat="45.68189" lon="5.97504">
        <ele>1530</ele>
        <time>2015-02-25T15:10:22Z</time>
      </trkpt>
      <trkpt lat="45.68172" lon="5.97493">
        <ele>1530</ele>
        <time>2015-02-25T15:15:10Z</time>
      </trkpt>
      <trkpt lat="45.68154" lon="5.97498">
        <ele>1527</ele>
        <time>2015-02-25T15:15:45Z</time>
      </trkpt>
      <trkpt lat="45.68136" lon="5.97502">
        <ele>1527</ele>
        <time>2015-02-25T15:16:04Z</time>
      </trkpt>
      <trkpt lat="45.68124" lon="5.9752">
        <ele>1525</ele>
        <time>2015-02-25T15:17:03Z</time>
      </trkpt>
      <trkpt lat="45.68131" lon="5.97545">
        <ele>1525</ele>
        <time>2015-02-25T15:17:27Z</time>
      </trkpt>
      <trkpt lat="45.68142" lon="5.97565">
        <ele>1524</ele>
        <time>2015-02-25T15:17:46Z</time>
      </trkpt>
      <trkpt lat="45.68148" lon="5.97591">
        <ele>1519</ele>
        <time>2015-02-25T15:18:04Z</time>
      </trkpt>
      <trkpt lat="45.68158" lon="5.97613">
        <ele>1518</ele>
        <time>2015-02-25T15:18:23Z</time>
      </trkpt>
      <trkpt lat="45.68175" lon="5.97626">
        <ele>1521</ele>
        <time>2015-02-25T15:18:54Z</time>
      </trkpt>
      <trkpt lat="45.68177" lon="5.97653">
        <ele>1518</ele>
        <time>2015-02-25T15:19:24Z</time>
      </trkpt>
      <trkpt lat="45.68165" lon="5.97674">
        <ele>1511</ele>
        <time>2015-02-25T15:19:42Z</time>
      </trkpt>
      <trkpt lat="45.68158" lon="5.97698">
        <ele>1507</ele>
        <time>2015-02-25T15:19:52Z</time>
      </trkpt>
      <trkpt lat="45.68145" lon="5.97718">
        <ele>1506</ele>
        <time>2015-02-25T15:20:02Z</time>
      </trkpt>
      <trkpt lat="45.6813" lon="5.97734">
        <ele>1505</ele>
        <time>2015-02-25T15:20:16Z</time>
      </trkpt>
      <trkpt lat="45.68121" lon="5.97758">
        <ele>1499</ele>
        <time>2015-02-25T15:20:38Z</time>
      </trkpt>
      <trkpt lat="45.6811" lon="5.97779">
        <ele>1498</ele>
        <time>2015-02-25T15:20:54Z</time>
      </trkpt>
      <trkpt lat="45.68106" lon="5.97805">
        <ele>1497</ele>
        <time>2015-02-25T15:22:27Z</time>
      </trkpt>
      <trkpt lat="45.68116" lon="5.97827">
        <ele>1496</ele>
        <time>2015-02-25T15:22:35Z</time>
      </trkpt>
      <trkpt lat="45.68126" lon="5.97852">
        <ele>1491</ele>
        <time>2015-02-25T15:22:43Z</time>
      </trkpt>
      <trkpt lat="45.68131" lon="5.97879">
        <ele>1490</ele>
        <time>2015-02-25T15:23:00Z</time>
      </trkpt>
      <trkpt lat="45.68137" lon="5.97903">
        <ele>1489</ele>
        <time>2015-02-25T15:23:08Z</time>
      </trkpt>
      <trkpt lat="45.68127" lon="5.97925">
        <ele>1484</ele>
        <time>2015-02-25T15:23:19Z</time>
      </trkpt>
      <trkpt lat="45.68129" lon="5.97951">
        <ele>1484</ele>
        <time>2015-02-25T15:23:26Z</time>
      </trkpt>
      <trkpt lat="45.68118" lon="5.97974">
        <ele>1483</ele>
        <time>2015-02-25T15:23:33Z</time>
      </trkpt>
      <trkpt lat="45.68104" lon="5.97992">
        <ele>1482</ele>
        <time>2015-02-25T15:23:38Z</time>
      </trkpt>
      <trkpt lat="45.68089" lon="5.98008">
        <ele>1479</ele>
        <time>2015-02-25T15:23:41Z</time>
      </trkpt>
      <trkpt lat="45.6807" lon="5.98025">
        <ele>1474</ele>
        <time>2015-02-25T15:23:46Z</time>
      </trkpt>
      <trkpt lat="45.68053" lon="5.98032">
        <ele>1473</ele>
        <time>2015-02-25T15:23:53Z</time>
      </trkpt>
      <trkpt lat="45.68033" lon="5.98039">
        <ele>1472</ele>
        <time>2015-02-25T15:24:02Z</time>
      </trkpt>
      <trkpt lat="45.68014" lon="5.98039">
        <ele>1471</ele>
        <time>2015-02-25T15:24:07Z</time>
      </trkpt>
      <trkpt lat="45.67994" lon="5.98039">
        <ele>1466</ele>
        <time>2015-02-25T15:24:12Z</time>
      </trkpt>
      <trkpt lat="45.67976" lon="5.98034">
        <ele>1466</ele>
        <time>2015-02-25T15:24:17Z</time>
      </trkpt>
      <trkpt lat="45.67958" lon="5.98032">
        <ele>1465</ele>
        <time>2015-02-25T15:24:22Z</time>
      </trkpt>
      <trkpt lat="45.67938" lon="5.98037">
        <ele>1464</ele>
        <time>2015-02-25T15:24:30Z</time>
      </trkpt>
      <trkpt lat="45.6792" lon="5.98032">
        <ele>1463</ele>
        <time>2015-02-25T15:24:41Z</time>
      </trkpt>
      <trkpt lat="45.67905" lon="5.98017">
        <ele>1461</ele>
        <time>2015-02-25T15:24:55Z</time>
      </trkpt>
      <trkpt lat="45.67886" lon="5.98007">
        <ele>1461</ele>
        <time>2015-02-25T15:25:02Z</time>
      </trkpt>
      <trkpt lat="45.67868" lon="5.98006">
        <ele>1462</ele>
        <time>2015-02-25T15:25:54Z</time>
      </trkpt>
      <trkpt lat="45.67861" lon="5.9803">
        <ele>1463</ele>
        <time>2015-02-25T15:27:22Z</time>
      </trkpt>
      <trkpt lat="45.67865" lon="5.98056">
        <ele>1464</ele>
        <time>2015-02-25T15:27:50Z</time>
      </trkpt>
      <trkpt lat="45.67876" lon="5.98078">
        <ele>1465</ele>
        <time>2015-02-25T15:28:09Z</time>
      </trkpt>
      <trkpt lat="45.67891" lon="5.98094">
        <ele>1470</ele>
        <time>2015-02-25T15:28:32Z</time>
      </trkpt>
      <trkpt lat="45.67903" lon="5.98113">
        <ele>1470</ele>
        <time>2015-02-25T15:28:46Z</time>
      </trkpt>
      <trkpt lat="45.67913" lon="5.98136">
        <ele>1472</ele>
        <time>2015-02-25T15:28:57Z</time>
      </trkpt>
      <trkpt lat="45.6793" lon="5.98148">
        <ele>1468</ele>
        <time>2015-02-25T15:29:04Z</time>
      </trkpt>
      <trkpt lat="45.67946" lon="5.98161">
        <ele>1467</ele>
        <time>2015-02-25T15:29:14Z</time>
      </trkpt>
      <trkpt lat="45.67956" lon="5.98182">
        <ele>1470</ele>
        <time>2015-02-25T15:29:27Z</time>
      </trkpt>
      <trkpt lat="45.67975" lon="5.982">
        <ele>1469</ele>
        <time>2015-02-25T15:29:34Z</time>
      </trkpt>
      <trkpt lat="45.67991" lon="5.98213">
        <ele>1468</ele>
        <time>2015-02-25T15:29:39Z</time>
      </trkpt>
      <trkpt lat="45.68006" lon="5.98228">
        <ele>1462</ele>
        <time>2015-02-25T15:29:54Z</time>
      </trkpt>
      <trkpt lat="45.68017" lon="5.98248">
        <ele>1463</ele>
        <time>2015-02-25T15:30:21Z</time>
      </trkpt>
      <trkpt lat="45.68032" lon="5.98264">
        <ele>1465</ele>
        <time>2015-02-25T15:30:34Z</time>
      </trkpt>
      <trkpt lat="45.68044" lon="5.98287">
        <ele>1465</ele>
        <time>2015-02-25T15:30:44Z</time>
      </trkpt>
      <trkpt lat="45.68051" lon="5.98312">
        <ele>1465</ele>
        <time>2015-02-25T15:30:50Z</time>
      </trkpt>
      <trkpt lat="45.68058" lon="5.98337">
        <ele>1472</ele>
        <time>2015-02-25T15:30:56Z</time>
      </trkpt>
      <trkpt lat="45.68078" lon="5.9836">
        <ele>1472</ele>
        <time>2015-02-25T15:30:59Z</time>
      </trkpt>
      <trkpt lat="45.68094" lon="5.98379">
        <ele>1464</ele>
        <time>2015-02-25T15:31:02Z</time>
      </trkpt>
      <trkpt lat="45.68111" lon="5.984">
        <ele>1465</ele>
        <time>2015-02-25T15:31:05Z</time>
      </trkpt>
      <trkpt lat="45.6813" lon="5.98401">
        <ele>1462</ele>
        <time>2015-02-25T15:31:07Z</time>
      </trkpt>
      <trkpt lat="45.68153" lon="5.98411">
        <ele>1459</ele>
        <time>2015-02-25T15:31:10Z</time>
      </trkpt>
      <trkpt lat="45.68166" lon="5.98436">
        <ele>1463</ele>
        <time>2015-02-25T15:31:13Z</time>
      </trkpt>
      <trkpt lat="45.68178" lon="5.98461">
        <ele>1460</ele>
        <time>2015-02-25T15:31:17Z</time>
      </trkpt>
      <trkpt lat="45.68195" lon="5.98474">
        <ele>1461</ele>
        <time>2015-02-25T15:31:21Z</time>
      </trkpt>
      <trkpt lat="45.68206" lon="5.98498">
        <ele>1460</ele>
        <time>2015-02-25T15:31:25Z</time>
      </trkpt>
      <trkpt lat="45.68215" lon="5.98523">
        <ele>1460</ele>
        <time>2015-02-25T15:31:30Z</time>
      </trkpt>
      <trkpt lat="45.68225" lon="5.98549">
        <ele>1459</ele>
        <time>2015-02-25T15:31:35Z</time>
      </trkpt>
      <trkpt lat="45.68232" lon="5.98573">
        <ele>1456</ele>
        <time>2015-02-25T15:31:40Z</time>
      </trkpt>
      <trkpt lat="45.68238" lon="5.98598">
        <ele>1455</ele>
        <time>2015-02-25T15:31:47Z</time>
      </trkpt>
      <trkpt lat="45.68244" lon="5.98625">
        <ele>1456</ele>
        <time>2015-02-25T15:31:55Z</time>
      </trkpt>
      <trkpt lat="45.68247" lon="5.98662">
        <ele>1448</ele>
        <time>2015-02-25T15:32:00Z</time>
      </trkpt>
      <trkpt lat="45.68245" lon="5.9869">
        <ele>1452</ele>
        <time>2015-02-25T15:32:04Z</time>
      </trkpt>
      <trkpt lat="45.68242" lon="5.98718">
        <ele>1453</ele>
        <time>2015-02-25T15:32:09Z</time>
      </trkpt>
      <trkpt lat="45.68246" lon="5.98747">
        <ele>1446</ele>
        <time>2015-02-25T15:32:14Z</time>
      </trkpt>
      <trkpt lat="45.68248" lon="5.98775">
        <ele>1448</ele>
        <time>2015-02-25T15:32:18Z</time>
      </trkpt>
      <trkpt lat="45.68251" lon="5.98804">
        <ele>1437</ele>
        <time>2015-02-25T15:32:22Z</time>
      </trkpt>
      <trkpt lat="45.68256" lon="5.9883">
        <ele>1437</ele>
        <time>2015-02-25T15:32:26Z</time>
      </trkpt>
      <trkpt lat="45.68257" lon="5.9886">
        <ele>1435</ele>
        <time>2015-02-25T15:32:31Z</time>
      </trkpt>
      <trkpt lat="45.68248" lon="5.98883">
        <ele>1440</ele>
        <time>2015-02-25T15:32:39Z</time>
      </trkpt>
      <trkpt lat="45.6823" lon="5.98907">
        <ele>1439</ele>
        <time>2015-02-25T15:32:44Z</time>
      </trkpt>
      <trkpt lat="45.68221" lon="5.9893">
        <ele>1434</ele>
        <time>2015-02-25T15:32:48Z</time>
      </trkpt>
      <trkpt lat="45.68208" lon="5.98961">
        <ele>1434</ele>
        <time>2015-02-25T15:32:52Z</time>
      </trkpt>
      <trkpt lat="45.68197" lon="5.98987">
        <ele>1432</ele>
        <time>2015-02-25T15:32:55Z</time>
      </trkpt>
      <trkpt lat="45.68184" lon="5.99011">
        <ele>1427</ele>
        <time>2015-02-25T15:32:58Z</time>
      </trkpt>
      <trkpt lat="45.68167" lon="5.99038">
        <ele>1425</ele>
        <time>2015-02-25T15:33:01Z</time>
      </trkpt>
      <trkpt lat="45.68152" lon="5.99057">
        <ele>1425</ele>
        <time>2015-02-25T15:33:04Z</time>
      </trkpt>
      <trkpt lat="45.68132" lon="5.99061">
        <ele>1426</ele>
        <time>2015-02-25T15:33:09Z</time>
      </trkpt>
      <trkpt lat="45.68114" lon="5.99067">
        <ele>1426</ele>
        <time>2015-02-25T15:33:23Z</time>
      </trkpt>
      <trkpt lat="45.68103" lon="5.9909">
        <ele>1422</ele>
        <time>2015-02-25T15:33:36Z</time>
      </trkpt>
      <trkpt lat="45.68085" lon="5.9911">
        <ele>1422</ele>
        <time>2015-02-25T15:33:42Z</time>
      </trkpt>
      <trkpt lat="45.68066" lon="5.99115">
        <ele>1422</ele>
        <time>2015-02-25T15:33:45Z</time>
      </trkpt>
      <trkpt lat="45.68043" lon="5.99128">
        <ele>1422</ele>
        <time>2015-02-25T15:33:49Z</time>
      </trkpt>
      <trkpt lat="45.68026" lon="5.99138">
        <ele>1421</ele>
        <time>2015-02-25T15:33:53Z</time>
      </trkpt>
      <trkpt lat="45.68005" lon="5.99147">
        <ele>1421</ele>
        <time>2015-02-25T15:33:59Z</time>
      </trkpt>
      <trkpt lat="45.67989" lon="5.99163">
        <ele>1420</ele>
        <time>2015-02-25T15:34:04Z</time>
      </trkpt>
      <trkpt lat="45.68003" lon="5.99181">
        <ele>1418</ele>
        <time>2015-02-25T15:34:42Z</time>
      </trkpt>
      <trkpt lat="45.68021" lon="5.99183">
        <ele>1418</ele>
        <time>2015-02-25T15:34:51Z</time>
      </trkpt>
      <trkpt lat="45.6804" lon="5.99192">
        <ele>1417</ele>
        <time>2015-02-25T15:34:58Z</time>
      </trkpt>
      <trkpt lat="45.68057" lon="5.99205">
        <ele>1416</ele>
        <time>2015-02-25T15:35:03Z</time>
      </trkpt>
      <trkpt lat="45.68065" lon="5.99231">
        <ele>1415</ele>
        <time>2015-02-25T15:35:08Z</time>
      </trkpt>
      <trkpt lat="45.68064" lon="5.99269">
        <ele>1411</ele>
        <time>2015-02-25T15:35:12Z</time>
      </trkpt>
      <trkpt lat="45.68059" lon="5.99308">
        <ele>1410</ele>
        <time>2015-02-25T15:35:16Z</time>
      </trkpt>
      <trkpt lat="45.6805" lon="5.99338">
        <ele>1407</ele>
        <time>2015-02-25T15:35:19Z</time>
      </trkpt>
      <trkpt lat="45.68044" lon="5.99368">
        <ele>1406</ele>
        <time>2015-02-25T15:35:23Z</time>
      </trkpt>
      <trkpt lat="45.68042" lon="5.99396">
        <ele>1406</ele>
        <time>2015-02-25T15:35:38Z</time>
      </trkpt>
      <trkpt lat="45.68042" lon="5.99427">
        <ele>1402</ele>
        <time>2015-02-25T15:35:41Z</time>
      </trkpt>
      <trkpt lat="45.68042" lon="5.99458">
        <ele>1401</ele>
        <time>2015-02-25T15:35:44Z</time>
      </trkpt>
      <trkpt lat="45.68045" lon="5.99489">
        <ele>1400</ele>
        <time>2015-02-25T15:35:47Z</time>
      </trkpt>
      <trkpt lat="45.6805" lon="5.99516">
        <ele>1396</ele>
        <time>2015-02-25T15:35:51Z</time>
      </trkpt>
      <trkpt lat="45.6805" lon="5.99544">
        <ele>1395</ele>
        <time>2015-02-25T15:36:02Z</time>
      </trkpt>
      <trkpt lat="45.68045" lon="5.99579">
        <ele>1395</ele>
        <time>2015-02-25T15:36:05Z</time>
      </trkpt>
      <trkpt lat="45.68048" lon="5.99609">
        <ele>1392</ele>
        <time>2015-02-25T15:36:08Z</time>
      </trkpt>
      <trkpt lat="45.68051" lon="5.99635">
        <ele>1392</ele>
        <time>2015-02-25T15:36:11Z</time>
      </trkpt>
      <trkpt lat="45.6805" lon="5.99664">
        <ele>1391</ele>
        <time>2015-02-25T15:36:14Z</time>
      </trkpt>
      <trkpt lat="45.68042" lon="5.99693">
        <ele>1389</ele>
        <time>2015-02-25T15:36:17Z</time>
      </trkpt>
      <trkpt lat="45.6802" lon="5.99709">
        <ele>1388</ele>
        <time>2015-02-25T15:36:21Z</time>
      </trkpt>
      <trkpt lat="45.68004" lon="5.99724">
        <ele>1388</ele>
        <time>2015-02-25T15:36:27Z</time>
      </trkpt>
      <trkpt lat="45.67991" lon="5.99745">
        <ele>1388</ele>
        <time>2015-02-25T15:36:44Z</time>
      </trkpt>
      <trkpt lat="45.67973" lon="5.99752">
        <ele>1388</ele>
        <time>2015-02-25T15:36:52Z</time>
      </trkpt>
      <trkpt lat="45.67956" lon="5.99764">
        <ele>1389</ele>
        <time>2015-02-25T15:37:12Z</time>
      </trkpt>
      <trkpt lat="45.67948" lon="5.99788">
        <ele>1389</ele>
        <time>2015-02-25T15:37:29Z</time>
      </trkpt>
      <trkpt lat="45.67941" lon="5.99814">
        <ele>1389</ele>
        <time>2015-02-25T15:37:57Z</time>
      </trkpt>
      <trkpt lat="45.67931" lon="5.99836">
        <ele>1388</ele>
        <time>2015-02-25T15:38:20Z</time>
      </trkpt>
      <trkpt lat="45.67916" lon="5.99851">
        <ele>1390</ele>
        <time>2015-02-25T15:39:02Z</time>
      </trkpt>
      <trkpt lat="45.67909" lon="5.99826">
        <ele>1392</ele>
        <time>2015-02-25T15:41:42Z</time>
      </trkpt>
      <trkpt lat="45.67911" lon="5.99799">
        <ele>1392</ele>
        <time>2015-02-25T15:41:56Z</time>
      </trkpt>
      <trkpt lat="45.67898" lon="5.99817">
        <ele>1392</ele>
        <time>2015-02-25T15:43:55Z</time>
      </trkpt>
      <trkpt lat="45.67894" lon="5.99843">
        <ele>1390</ele>
        <time>2015-02-25T15:44:02Z</time>
      </trkpt>
      <trkpt lat="45.67887" lon="5.99875">
        <ele>1389</ele>
        <time>2015-02-25T15:44:06Z</time>
      </trkpt>
      <trkpt lat="45.67877" lon="5.99897">
        <ele>1388</ele>
        <time>2015-02-25T15:44:11Z</time>
      </trkpt>
      <trkpt lat="45.67858" lon="5.99891">
        <ele>1388</ele>
        <time>2015-02-25T15:44:24Z</time>
      </trkpt>
      <trkpt lat="45.67841" lon="5.99876">
        <ele>1389</ele>
        <time>2015-02-25T15:44:34Z</time>
      </trkpt>
      <trkpt lat="45.67825" lon="5.99861">
        <ele>1388</ele>
        <time>2015-02-25T15:44:44Z</time>
      </trkpt>
      <trkpt lat="45.67811" lon="5.99844">
        <ele>1389</ele>
        <time>2015-02-25T15:45:03Z</time>
      </trkpt>
      <trkpt lat="45.67794" lon="5.99833">
        <ele>1391</ele>
        <time>2015-02-25T15:45:18Z</time>
      </trkpt>
      <trkpt lat="45.67777" lon="5.99822">
        <ele>1390</ele>
        <time>2015-02-25T15:45:40Z</time>
      </trkpt>
      <trkpt lat="45.6776" lon="5.99814">
        <ele>1390</ele>
        <time>2015-02-25T15:47:21Z</time>
      </trkpt>
      <trkpt lat="45.67741" lon="5.99802">
        <ele>1388</ele>
        <time>2015-02-25T15:47:28Z</time>
      </trkpt>
      <trkpt lat="45.6772" lon="5.99803">
        <ele>1388</ele>
        <time>2015-02-25T15:47:33Z</time>
      </trkpt>
      <trkpt lat="45.67702" lon="5.99806">
        <ele>1387</ele>
        <time>2015-02-25T15:47:42Z</time>
      </trkpt>
      <trkpt lat="45.67685" lon="5.99814">
        <ele>1386</ele>
        <time>2015-02-25T15:48:09Z</time>
      </trkpt>
      <trkpt lat="45.67666" lon="5.99804">
        <ele>1382</ele>
        <time>2015-02-25T15:48:24Z</time>
      </trkpt>
      <trkpt lat="45.6765" lon="5.99793">
        <ele>1382</ele>
        <time>2015-02-25T15:48:31Z</time>
      </trkpt>
      <trkpt lat="45.67639" lon="5.99771">
        <ele>1382</ele>
        <time>2015-02-25T15:48:38Z</time>
      </trkpt>
      <trkpt lat="45.67629" lon="5.99744">
        <ele>1384</ele>
        <time>2015-02-25T15:48:43Z</time>
      </trkpt>
      <trkpt lat="45.67615" lon="5.99719">
        <ele>1383</ele>
        <time>2015-02-25T15:48:48Z</time>
      </trkpt>
      <trkpt lat="45.67597" lon="5.99703">
        <ele>1383</ele>
        <time>2015-02-25T15:48:53Z</time>
      </trkpt>
      <trkpt lat="45.67577" lon="5.99691">
        <ele>1379</ele>
        <time>2015-02-25T15:48:58Z</time>
      </trkpt>
      <trkpt lat="45.67561" lon="5.9968">
        <ele>1379</ele>
        <time>2015-02-25T15:49:02Z</time>
      </trkpt>
      <trkpt lat="45.67544" lon="5.99668">
        <ele>1378</ele>
        <time>2015-02-25T15:49:06Z</time>
      </trkpt>
      <trkpt lat="45.67526" lon="5.99662">
        <ele>1381</ele>
        <time>2015-02-25T15:49:12Z</time>
      </trkpt>
      <trkpt lat="45.67506" lon="5.9966">
        <ele>1379</ele>
        <time>2015-02-25T15:49:17Z</time>
      </trkpt>
      <trkpt lat="45.67487" lon="5.99661">
        <ele>1378</ele>
        <time>2015-02-25T15:49:22Z</time>
      </trkpt>
      <trkpt lat="45.67469" lon="5.99661">
        <ele>1379</ele>
        <time>2015-02-25T15:50:31Z</time>
      </trkpt>
      <trkpt lat="45.67452" lon="5.99647">
        <ele>1380</ele>
        <time>2015-02-25T15:50:49Z</time>
      </trkpt>
      <trkpt lat="45.67435" lon="5.99628">
        <ele>1380</ele>
        <time>2015-02-25T15:50:57Z</time>
      </trkpt>
      <trkpt lat="45.67418" lon="5.99613">
        <ele>1380</ele>
        <time>2015-02-25T15:51:02Z</time>
      </trkpt>
      <trkpt lat="45.67403" lon="5.99597">
        <ele>1380</ele>
        <time>2015-02-25T15:51:10Z</time>
      </trkpt>
      <trkpt lat="45.67387" lon="5.99584">
        <ele>1380</ele>
        <time>2015-02-25T15:51:28Z</time>
      </trkpt>
      <trkpt lat="45.67369" lon="5.99585">
        <ele>1380</ele>
        <time>2015-02-25T15:52:05Z</time>
      </trkpt>
      <trkpt lat="45.67351" lon="5.99588">
        <ele>1381</ele>
        <time>2015-02-25T15:52:26Z</time>
      </trkpt>
      <trkpt lat="45.67334" lon="5.99602">
        <ele>1381</ele>
        <time>2015-02-25T15:52:33Z</time>
      </trkpt>
      <trkpt lat="45.67315" lon="5.99606">
        <ele>1382</ele>
        <time>2015-02-25T15:52:40Z</time>
      </trkpt>
      <trkpt lat="45.67297" lon="5.99605">
        <ele>1382</ele>
        <time>2015-02-25T15:52:46Z</time>
      </trkpt>
      <trkpt lat="45.67279" lon="5.99599">
        <ele>1382</ele>
        <time>2015-02-25T15:52:54Z</time>
      </trkpt>
      <trkpt lat="45.6726" lon="5.99593">
        <ele>1382</ele>
        <time>2015-02-25T15:53:07Z</time>
      </trkpt>
      <trkpt lat="45.67242" lon="5.99598">
        <ele>1383</ele>
        <time>2015-02-25T15:53:25Z</time>
      </trkpt>
      <trkpt lat="45.67227" lon="5.99582">
        <ele>1383</ele>
        <time>2015-02-25T15:53:46Z</time>
      </trkpt>
      <trkpt lat="45.67216" lon="5.9956">
        <ele>1384</ele>
        <time>2015-02-25T15:54:11Z</time>
      </trkpt>
      <trkpt lat="45.67206" lon="5.99537">
        <ele>1384</ele>
        <time>2015-02-25T15:54:29Z</time>
      </trkpt>
      <trkpt lat="45.67193" lon="5.99519">
        <ele>1384</ele>
        <time>2015-02-25T15:54:51Z</time>
      </trkpt>
      <trkpt lat="45.67179" lon="5.99502">
        <ele>1384</ele>
        <time>2015-02-25T15:55:04Z</time>
      </trkpt>
      <trkpt lat="45.67172" lon="5.99477">
        <ele>1385</ele>
        <time>2015-02-25T15:55:11Z</time>
      </trkpt>
      <trkpt lat="45.67163" lon="5.99455">
        <ele>1385</ele>
        <time>2015-02-25T15:55:17Z</time>
      </trkpt>
      <trkpt lat="45.67158" lon="5.9943">
        <ele>1385</ele>
        <time>2015-02-25T15:55:26Z</time>
      </trkpt>
      <trkpt lat="45.67144" lon="5.9941">
        <ele>1386</ele>
        <time>2015-02-25T15:55:46Z</time>
      </trkpt>
      <trkpt lat="45.67131" lon="5.99393">
        <ele>1386</ele>
        <time>2015-02-25T15:55:53Z</time>
      </trkpt>
      <trkpt lat="45.67116" lon="5.99374">
        <ele>1387</ele>
        <time>2015-02-25T15:55:58Z</time>
      </trkpt>
      <trkpt lat="45.67101" lon="5.99354">
        <ele>1387</ele>
        <time>2015-02-25T15:56:05Z</time>
      </trkpt>
      <trkpt lat="45.6709" lon="5.99333">
        <ele>1387</ele>
        <time>2015-02-25T15:56:16Z</time>
      </trkpt>
      <trkpt lat="45.67078" lon="5.9931">
        <ele>1387</ele>
        <time>2015-02-25T15:56:26Z</time>
      </trkpt>
      <trkpt lat="45.67064" lon="5.99289">
        <ele>1388</ele>
        <time>2015-02-25T15:56:38Z</time>
      </trkpt>
      <trkpt lat="45.67052" lon="5.99268">
        <ele>1388</ele>
        <time>2015-02-25T15:56:44Z</time>
      </trkpt>
      <trkpt lat="45.67042" lon="5.99246">
        <ele>1390</ele>
        <time>2015-02-25T15:56:50Z</time>
      </trkpt>
      <trkpt lat="45.67029" lon="5.99222">
        <ele>1390</ele>
        <time>2015-02-25T15:56:56Z</time>
      </trkpt>
      <trkpt lat="45.67013" lon="5.99209">
        <ele>1390</ele>
        <time>2015-02-25T15:57:02Z</time>
      </trkpt>
      <trkpt lat="45.66999" lon="5.99189">
        <ele>1389</ele>
        <time>2015-02-25T15:57:08Z</time>
      </trkpt>
      <trkpt lat="45.66982" lon="5.99175">
        <ele>1389</ele>
        <time>2015-02-25T15:57:17Z</time>
      </trkpt>
      <trkpt lat="45.66964" lon="5.99165">
        <ele>1390</ele>
        <time>2015-02-25T15:57:26Z</time>
      </trkpt>
      <trkpt lat="45.66949" lon="5.9915">
        <ele>1389</ele>
        <time>2015-02-25T15:57:39Z</time>
      </trkpt>
      <trkpt lat="45.66933" lon="5.99138">
        <ele>1389</ele>
        <time>2015-02-25T15:57:50Z</time>
      </trkpt>
      <trkpt lat="45.66915" lon="5.99129">
        <ele>1387</ele>
        <time>2015-02-25T15:58:03Z</time>
      </trkpt>
      <trkpt lat="45.66897" lon="5.99125">
        <ele>1386</ele>
        <time>2015-02-25T15:58:28Z</time>
      </trkpt>
      <trkpt lat="45.66881" lon="5.99113">
        <ele>1386</ele>
        <time>2015-02-25T15:58:50Z</time>
      </trkpt>
      <trkpt lat="45.66863" lon="5.99105">
        <ele>1386</ele>
        <time>2015-02-25T15:59:08Z</time>
      </trkpt>
      <trkpt lat="45.66851" lon="5.99083">
        <ele>1385</ele>
        <time>2015-02-25T15:59:25Z</time>
      </trkpt>
      <trkpt lat="45.66843" lon="5.99061">
        <ele>1387</ele>
        <time>2015-02-25T16:00:11Z</time>
      </trkpt>
      <trkpt lat="45.66837" lon="5.99036">
        <ele>1388</ele>
        <time>2015-02-25T16:00:25Z</time>
      </trkpt>
      <trkpt lat="45.66835" lon="5.9901">
        <ele>1389</ele>
        <time>2015-02-25T16:00:30Z</time>
      </trkpt>
      <trkpt lat="45.66836" lon="5.98983">
        <ele>1391</ele>
        <time>2015-02-25T16:00:37Z</time>
      </trkpt>
      <trkpt lat="45.6683" lon="5.98955">
        <ele>1389</ele>
        <time>2015-02-25T16:00:43Z</time>
      </trkpt>
      <trkpt lat="45.66817" lon="5.98933">
        <ele>1390</ele>
        <time>2015-02-25T16:00:52Z</time>
      </trkpt>
      <trkpt lat="45.66799" lon="5.98922">
        <ele>1389</ele>
        <time>2015-02-25T16:00:59Z</time>
      </trkpt>
      <trkpt lat="45.66783" lon="5.98909">
        <ele>1390</ele>
        <time>2015-02-25T16:01:06Z</time>
      </trkpt>
      <trkpt lat="45.66769" lon="5.9889">
        <ele>1390</ele>
        <time>2015-02-25T16:01:18Z</time>
      </trkpt>
      <trkpt lat="45.66758" lon="5.98868">
        <ele>1390</ele>
        <time>2015-02-25T16:01:32Z</time>
      </trkpt>
      <trkpt lat="45.66748" lon="5.98845">
        <ele>1389</ele>
        <time>2015-02-25T16:01:41Z</time>
      </trkpt>
      <trkpt lat="45.66736" lon="5.98823">
        <ele>1389</ele>
        <time>2015-02-25T16:01:48Z</time>
      </trkpt>
      <trkpt lat="45.66718" lon="5.98826">
        <ele>1389</ele>
        <time>2015-02-25T16:03:18Z</time>
      </trkpt>
      <trkpt lat="45.66705" lon="5.98846">
        <ele>1390</ele>
        <time>2015-02-25T16:03:37Z</time>
      </trkpt>
      <trkpt lat="45.66694" lon="5.98866">
        <ele>1390</ele>
        <time>2015-02-25T16:04:17Z</time>
      </trkpt>
      <trkpt lat="45.66676" lon="5.98871">
        <ele>1390</ele>
        <time>2015-02-25T16:05:34Z</time>
      </trkpt>
      <trkpt lat="45.66659" lon="5.98863">
        <ele>1391</ele>
        <time>2015-02-25T16:05:56Z</time>
      </trkpt>
      <trkpt lat="45.66641" lon="5.98854">
        <ele>1391</ele>
        <time>2015-02-25T16:06:05Z</time>
      </trkpt>
      <trkpt lat="45.66623" lon="5.98843">
        <ele>1390</ele>
        <time>2015-02-25T16:06:14Z</time>
      </trkpt>
      <trkpt lat="45.66603" lon="5.98839">
        <ele>1390</ele>
        <time>2015-02-25T16:06:21Z</time>
      </trkpt>
      <trkpt lat="45.66585" lon="5.98832">
        <ele>1390</ele>
        <time>2015-02-25T16:06:27Z</time>
      </trkpt>
      <trkpt lat="45.66568" lon="5.98822">
        <ele>1389</ele>
        <time>2015-02-25T16:06:35Z</time>
      </trkpt>
      <trkpt lat="45.6655" lon="5.98826">
        <ele>1389</ele>
        <time>2015-02-25T16:06:56Z</time>
      </trkpt>
      <trkpt lat="45.66532" lon="5.98826">
        <ele>1390</ele>
        <time>2015-02-25T16:07:09Z</time>
      </trkpt>
      <trkpt lat="45.66513" lon="5.98822">
        <ele>1390</ele>
        <time>2015-02-25T16:07:22Z</time>
      </trkpt>
      <trkpt lat="45.66494" lon="5.98812">
        <ele>1390</ele>
        <time>2015-02-25T16:07:29Z</time>
      </trkpt>
      <trkpt lat="45.66476" lon="5.98799">
        <ele>1390</ele>
        <time>2015-02-25T16:07:35Z</time>
      </trkpt>
      <trkpt lat="45.66458" lon="5.98798">
        <ele>1390</ele>
        <time>2015-02-25T16:07:41Z</time>
      </trkpt>
      <trkpt lat="45.66439" lon="5.98795">
        <ele>1390</ele>
        <time>2015-02-25T16:07:53Z</time>
      </trkpt>
      <trkpt lat="45.66419" lon="5.98794">
        <ele>1390</ele>
        <time>2015-02-25T16:08:01Z</time>
      </trkpt>
      <trkpt lat="45.66402" lon="5.98785">
        <ele>1390</ele>
        <time>2015-02-25T16:08:19Z</time>
      </trkpt>
      <trkpt lat="45.66392" lon="5.98764">
        <ele>1389</ele>
        <time>2015-02-25T16:08:32Z</time>
      </trkpt>
      <trkpt lat="45.66385" lon="5.9874">
        <ele>1388</ele>
        <time>2015-02-25T16:08:42Z</time>
      </trkpt>
      <trkpt lat="45.66387" lon="5.98713">
        <ele>1388</ele>
        <time>2015-02-25T16:11:37Z</time>
      </trkpt>
      <trkpt lat="45.6638" lon="5.98688">
        <ele>1388</ele>
        <time>2015-02-25T16:11:49Z</time>
      </trkpt>
      <trkpt lat="45.66373" lon="5.98664">
        <ele>1387</ele>
        <time>2015-02-25T16:12:03Z</time>
      </trkpt>
      <trkpt lat="45.66362" lon="5.98639">
        <ele>1387</ele>
        <time>2015-02-25T16:12:11Z</time>
      </trkpt>
      <trkpt lat="45.66352" lon="5.98615">
        <ele>1386</ele>
        <time>2015-02-25T16:12:15Z</time>
      </trkpt>
      <trkpt lat="45.66347" lon="5.9859">
        <ele>1386</ele>
        <time>2015-02-25T16:14:00Z</time>
      </trkpt>
      <trkpt lat="45.66356" lon="5.98566">
        <ele>1384</ele>
        <time>2015-02-25T16:14:16Z</time>
      </trkpt>
      <trkpt lat="45.66368" lon="5.98543">
        <ele>1383</ele>
        <time>2015-02-25T16:14:31Z</time>
      </trkpt>
      <trkpt lat="45.6638" lon="5.98519">
        <ele>1383</ele>
        <time>2015-02-25T16:14:44Z</time>
      </trkpt>
      <trkpt lat="45.66386" lon="5.98494">
        <ele>1382</ele>
        <time>2015-02-25T16:14:50Z</time>
      </trkpt>
      <trkpt lat="45.66392" lon="5.98469">
        <ele>1382</ele>
        <time>2015-02-25T16:14:56Z</time>
      </trkpt>
      <trkpt lat="45.66375" lon="5.98458">
        <ele>1383</ele>
        <time>2015-02-25T16:15:24Z</time>
      </trkpt>
      <trkpt lat="45.66367" lon="5.98433">
        <ele>1383</ele>
        <time>2015-02-25T16:15:40Z</time>
      </trkpt>
      <trkpt lat="45.66364" lon="5.98408">
        <ele>1384</ele>
        <time>2015-02-25T16:15:58Z</time>
      </trkpt>
      <trkpt lat="45.66352" lon="5.98388">
        <ele>1384</ele>
        <time>2015-02-25T16:16:09Z</time>
      </trkpt>
      <trkpt lat="45.66341" lon="5.98368">
        <ele>1385</ele>
        <time>2015-02-25T16:16:27Z</time>
      </trkpt>
      <trkpt lat="45.66326" lon="5.98354">
        <ele>1387</ele>
        <time>2015-02-25T16:16:44Z</time>
      </trkpt>
      <trkpt lat="45.66311" lon="5.98338">
        <ele>1387</ele>
        <time>2015-02-25T16:16:58Z</time>
      </trkpt>
      <trkpt lat="45.66293" lon="5.98329">
        <ele>1390</ele>
        <time>2015-02-25T16:17:13Z</time>
      </trkpt>
      <trkpt lat="45.6628" lon="5.98348">
        <ele>1389</ele>
        <time>2015-02-25T16:17:44Z</time>
      </trkpt>
      <trkpt lat="45.66284" lon="5.98373">
        <ele>1388</ele>
        <time>2015-02-25T16:17:56Z</time>
      </trkpt>
      <trkpt lat="45.6628" lon="5.98399">
        <ele>1388</ele>
        <time>2015-02-25T16:18:18Z</time>
      </trkpt>
      <trkpt lat="45.66262" lon="5.98408">
        <ele>1389</ele>
        <time>2015-02-25T16:18:38Z</time>
      </trkpt>
      <trkpt lat="45.66244" lon="5.98414">
        <ele>1390</ele>
        <time>2015-02-25T16:18:55Z</time>
      </trkpt>
      <trkpt lat="45.66228" lon="5.98427">
        <ele>1389</ele>
        <time>2015-02-25T16:19:06Z</time>
      </trkpt>
      <trkpt lat="45.66218" lon="5.9845">
        <ele>1389</ele>
        <time>2015-02-25T16:19:19Z</time>
      </trkpt>
      <trkpt lat="45.66205" lon="5.98468">
        <ele>1389</ele>
        <time>2015-02-25T16:19:31Z</time>
      </trkpt>
      <trkpt lat="45.66189" lon="5.98483">
        <ele>1389</ele>
        <time>2015-02-25T16:19:51Z</time>
      </trkpt>
      <trkpt lat="45.6617" lon="5.98483">
        <ele>1389</ele>
        <time>2015-02-25T16:20:13Z</time>
      </trkpt>
      <trkpt lat="45.6615" lon="5.98482">
        <ele>1390</ele>
        <time>2015-02-25T16:20:21Z</time>
      </trkpt>
      <trkpt lat="45.66133" lon="5.98475">
        <ele>1389</ele>
        <time>2015-02-25T16:20:30Z</time>
      </trkpt>
      <trkpt lat="45.66116" lon="5.98459">
        <ele>1389</ele>
        <time>2015-02-25T16:20:39Z</time>
      </trkpt>
      <trkpt lat="45.66098" lon="5.98455">
        <ele>1389</ele>
        <time>2015-02-25T16:20:53Z</time>
      </trkpt>
      <trkpt lat="45.66079" lon="5.98446">
        <ele>1389</ele>
        <time>2015-02-25T16:21:07Z</time>
      </trkpt>
      <trkpt lat="45.66065" lon="5.98428">
        <ele>1389</ele>
        <time>2015-02-25T16:21:19Z</time>
      </trkpt>
      <trkpt lat="45.66049" lon="5.98408">
        <ele>1391</ele>
        <time>2015-02-25T16:21:31Z</time>
      </trkpt>
      <trkpt lat="45.66041" lon="5.98385">
        <ele>1392</ele>
        <time>2015-02-25T16:21:42Z</time>
      </trkpt>
      <trkpt lat="45.66028" lon="5.98367">
        <ele>1392</ele>
        <time>2015-02-25T16:22:05Z</time>
      </trkpt>
      <trkpt lat="45.66015" lon="5.98348">
        <ele>1393</ele>
        <time>2015-02-25T16:22:39Z</time>
      </trkpt>
      <trkpt lat="45.66" lon="5.98329">
        <ele>1394</ele>
        <time>2015-02-25T16:22:58Z</time>
      </trkpt>
      <trkpt lat="45.65985" lon="5.98314">
        <ele>1394</ele>
        <time>2015-02-25T16:23:17Z</time>
      </trkpt>
      <trkpt lat="45.65971" lon="5.98296">
        <ele>1394</ele>
        <time>2015-02-25T16:23:31Z</time>
      </trkpt>
      <trkpt lat="45.6596" lon="5.98272">
        <ele>1393</ele>
        <time>2015-02-25T16:23:37Z</time>
      </trkpt>
      <trkpt lat="45.65946" lon="5.98255">
        <ele>1393</ele>
        <time>2015-02-25T16:23:42Z</time>
      </trkpt>
      <trkpt lat="45.65929" lon="5.98241">
        <ele>1393</ele>
        <time>2015-02-25T16:23:49Z</time>
      </trkpt>
      <trkpt lat="45.65911" lon="5.98239">
        <ele>1390</ele>
        <time>2015-02-25T16:24:12Z</time>
      </trkpt>
      <trkpt lat="45.659" lon="5.98216">
        <ele>1390</ele>
        <time>2015-02-25T16:24:29Z</time>
      </trkpt>
      <trkpt lat="45.65885" lon="5.98201">
        <ele>1389</ele>
        <time>2015-02-25T16:24:43Z</time>
      </trkpt>
      <trkpt lat="45.65866" lon="5.98193">
        <ele>1389</ele>
        <time>2015-02-25T16:26:11Z</time>
      </trkpt>
      <trkpt lat="45.65847" lon="5.98181">
        <ele>1389</ele>
        <time>2015-02-25T16:26:17Z</time>
      </trkpt>
      <trkpt lat="45.65833" lon="5.98165">
        <ele>1388</ele>
        <time>2015-02-25T16:26:24Z</time>
      </trkpt>
      <trkpt lat="45.65814" lon="5.98167">
        <ele>1387</ele>
        <time>2015-02-25T16:26:32Z</time>
      </trkpt>
      <trkpt lat="45.65797" lon="5.98176">
        <ele>1386</ele>
        <time>2015-02-25T16:26:39Z</time>
      </trkpt>
      <trkpt lat="45.65776" lon="5.98177">
        <ele>1385</ele>
        <time>2015-02-25T16:26:47Z</time>
      </trkpt>
      <trkpt lat="45.65756" lon="5.98173">
        <ele>1385</ele>
        <time>2015-02-25T16:26:55Z</time>
      </trkpt>
      <trkpt lat="45.65738" lon="5.98176">
        <ele>1384</ele>
        <time>2015-02-25T16:27:07Z</time>
      </trkpt>
      <trkpt lat="45.6572" lon="5.98182">
        <ele>1385</ele>
        <time>2015-02-25T16:27:26Z</time>
      </trkpt>
      <trkpt lat="45.65701" lon="5.98173">
        <ele>1385</ele>
        <time>2015-02-25T16:27:39Z</time>
      </trkpt>
      <trkpt lat="45.65682" lon="5.98169">
        <ele>1385</ele>
        <time>2015-02-25T16:27:50Z</time>
      </trkpt>
      <trkpt lat="45.65664" lon="5.98161">
        <ele>1387</ele>
        <time>2015-02-25T16:28:24Z</time>
      </trkpt>
      <trkpt lat="45.65646" lon="5.98154">
        <ele>1389</ele>
        <time>2015-02-25T16:28:41Z</time>
      </trkpt>
      <trkpt lat="45.65628" lon="5.98153">
        <ele>1389</ele>
        <time>2015-02-25T16:28:48Z</time>
      </trkpt>
      <trkpt lat="45.65608" lon="5.98152">
        <ele>1389</ele>
        <time>2015-02-25T16:28:55Z</time>
      </trkpt>
      <trkpt lat="45.65589" lon="5.98152">
        <ele>1388</ele>
        <time>2015-02-25T16:29:02Z</time>
      </trkpt>
      <trkpt lat="45.65576" lon="5.98169">
        <ele>1385</ele>
        <time>2015-02-25T16:29:17Z</time>
      </trkpt>
      <trkpt lat="45.65579" lon="5.98196">
        <ele>1384</ele>
        <time>2015-02-25T16:29:30Z</time>
      </trkpt>
      <trkpt lat="45.65584" lon="5.98228">
        <ele>1383</ele>
        <time>2015-02-25T16:29:35Z</time>
      </trkpt>
      <trkpt lat="45.65585" lon="5.98254">
        <ele>1381</ele>
        <time>2015-02-25T16:29:39Z</time>
      </trkpt>
      <trkpt lat="45.65581" lon="5.98283">
        <ele>1381</ele>
        <time>2015-02-25T16:29:42Z</time>
      </trkpt>
      <trkpt lat="45.65571" lon="5.98317">
        <ele>1380</ele>
        <time>2015-02-25T16:29:47Z</time>
      </trkpt>
      <trkpt lat="45.65561" lon="5.98342">
        <ele>1380</ele>
        <time>2015-02-25T16:29:51Z</time>
      </trkpt>
      <trkpt lat="45.65557" lon="5.98368">
        <ele>1380</ele>
        <time>2015-02-25T16:30:02Z</time>
      </trkpt>
      <trkpt lat="45.65558" lon="5.98395">
        <ele>1381</ele>
        <time>2015-02-25T16:31:21Z</time>
      </trkpt>
      <trkpt lat="45.65551" lon="5.98418">
        <ele>1382</ele>
        <time>2015-02-25T16:31:38Z</time>
      </trkpt>
      <trkpt lat="45.65537" lon="5.98438">
        <ele>1382</ele>
        <time>2015-02-25T16:31:55Z</time>
      </trkpt>
      <trkpt lat="45.65531" lon="5.98463">
        <ele>1382</ele>
        <time>2015-02-25T16:32:09Z</time>
      </trkpt>
      <trkpt lat="45.65521" lon="5.98483">
        <ele>1382</ele>
        <time>2015-02-25T16:32:17Z</time>
      </trkpt>
      <trkpt lat="45.65511" lon="5.98507">
        <ele>1382</ele>
        <time>2015-02-25T16:32:31Z</time>
      </trkpt>
      <trkpt lat="45.65502" lon="5.9853">
        <ele>1382</ele>
        <time>2015-02-25T16:32:46Z</time>
      </trkpt>
      <trkpt lat="45.65495" lon="5.98559">
        <ele>1380</ele>
        <time>2015-02-25T16:32:53Z</time>
      </trkpt>
      <trkpt lat="45.65485" lon="5.98586">
        <ele>1379</ele>
        <time>2015-02-25T16:32:56Z</time>
      </trkpt>
      <trkpt lat="45.65477" lon="5.98618">
        <ele>1377</ele>
        <time>2015-02-25T16:32:59Z</time>
      </trkpt>
      <trkpt lat="45.65471" lon="5.98645">
        <ele>1376</ele>
        <time>2015-02-25T16:33:01Z</time>
      </trkpt>
      <trkpt lat="45.65466" lon="5.98676">
        <ele>1373</ele>
        <time>2015-02-25T16:33:04Z</time>
      </trkpt>
      <trkpt lat="45.6546" lon="5.98706">
        <ele>1372</ele>
        <time>2015-02-25T16:33:08Z</time>
      </trkpt>
      <trkpt lat="45.65458" lon="5.98733">
        <ele>1371</ele>
        <time>2015-02-25T16:33:12Z</time>
      </trkpt>
      <trkpt lat="45.65463" lon="5.98763">
        <ele>1367</ele>
        <time>2015-02-25T16:33:16Z</time>
      </trkpt>
      <trkpt lat="45.65464" lon="5.9879">
        <ele>1366</ele>
        <time>2015-02-25T16:33:20Z</time>
      </trkpt>
      <trkpt lat="45.65462" lon="5.9882">
        <ele>1365</ele>
        <time>2015-02-25T16:33:24Z</time>
      </trkpt>
      <trkpt lat="45.65455" lon="5.98848">
        <ele>1361</ele>
        <time>2015-02-25T16:33:31Z</time>
      </trkpt>
      <trkpt lat="45.65453" lon="5.98875">
        <ele>1360</ele>
        <time>2015-02-25T16:33:37Z</time>
      </trkpt>
      <trkpt lat="45.6545" lon="5.98902">
        <ele>1359</ele>
        <time>2015-02-25T16:33:42Z</time>
      </trkpt>
      <trkpt lat="45.65435" lon="5.98926">
        <ele>1356</ele>
        <time>2015-02-25T16:33:46Z</time>
      </trkpt>
      <trkpt lat="45.65416" lon="5.98924">
        <ele>1353</ele>
        <time>2015-02-25T16:34:22Z</time>
      </trkpt>
      <trkpt lat="45.65406" lon="5.98899">
        <ele>1353</ele>
        <time>2015-02-25T16:34:34Z</time>
      </trkpt>
      <trkpt lat="45.65397" lon="5.98874">
        <ele>1353</ele>
        <time>2015-02-25T16:34:43Z</time>
      </trkpt>
      <trkpt lat="45.65384" lon="5.98854">
        <ele>1353</ele>
        <time>2015-02-25T16:34:48Z</time>
      </trkpt>
      <trkpt lat="45.65373" lon="5.9883">
        <ele>1354</ele>
        <time>2015-02-25T16:34:53Z</time>
      </trkpt>
      <trkpt lat="45.65358" lon="5.98808">
        <ele>1354</ele>
        <time>2015-02-25T16:34:58Z</time>
      </trkpt>
      <trkpt lat="45.65343" lon="5.98789">
        <ele>1354</ele>
        <time>2015-02-25T16:35:02Z</time>
      </trkpt>
      <trkpt lat="45.65333" lon="5.98767">
        <ele>1348</ele>
        <time>2015-02-25T16:35:06Z</time>
      </trkpt>
      <trkpt lat="45.65315" lon="5.98755">
        <ele>1348</ele>
        <time>2015-02-25T16:35:11Z</time>
      </trkpt>
      <trkpt lat="45.65297" lon="5.98747">
        <ele>1348</ele>
        <time>2015-02-25T16:35:17Z</time>
      </trkpt>
      <trkpt lat="45.65276" lon="5.98745">
        <ele>1346</ele>
        <time>2015-02-25T16:35:22Z</time>
      </trkpt>
      <trkpt lat="45.65259" lon="5.98738">
        <ele>1343</ele>
        <time>2015-02-25T16:38:50Z</time>
      </trkpt>
      <trkpt lat="45.65242" lon="5.98728">
        <ele>1339</ele>
        <time>2015-02-25T16:38:56Z</time>
      </trkpt>
      <trkpt lat="45.65225" lon="5.98713">
        <ele>1339</ele>
        <time>2015-02-25T16:39:04Z</time>
      </trkpt>
      <trkpt lat="45.65209" lon="5.98696">
        <ele>1339</ele>
        <time>2015-02-25T16:39:09Z</time>
      </trkpt>
      <trkpt lat="45.65192" lon="5.98684">
        <ele>1338</ele>
        <time>2015-02-25T16:39:11Z</time>
      </trkpt>
      <trkpt lat="45.65174" lon="5.98674">
        <ele>1336</ele>
        <time>2015-02-25T16:39:15Z</time>
      </trkpt>
      <trkpt lat="45.65155" lon="5.9867">
        <ele>1334</ele>
        <time>2015-02-25T16:39:20Z</time>
      </trkpt>
      <trkpt lat="45.65137" lon="5.98666">
        <ele>1336</ele>
        <time>2015-02-25T16:39:27Z</time>
      </trkpt>
      <trkpt lat="45.65118" lon="5.98659">
        <ele>1336</ele>
        <time>2015-02-25T16:39:34Z</time>
      </trkpt>
      <trkpt lat="45.65099" lon="5.98653">
        <ele>1335</ele>
        <time>2015-02-25T16:39:41Z</time>
      </trkpt>
      <trkpt lat="45.65081" lon="5.98645">
        <ele>1332</ele>
        <time>2015-02-25T16:39:47Z</time>
      </trkpt>
      <trkpt lat="45.65062" lon="5.98633">
        <ele>1333</ele>
        <time>2015-02-25T16:39:54Z</time>
      </trkpt>
      <trkpt lat="45.65042" lon="5.98631">
        <ele>1332</ele>
        <time>2015-02-25T16:40:00Z</time>
      </trkpt>
      <trkpt lat="45.65024" lon="5.98635">
        <ele>1331</ele>
        <time>2015-02-25T16:40:05Z</time>
      </trkpt>
      <trkpt lat="45.65005" lon="5.98639">
        <ele>1330</ele>
        <time>2015-02-25T16:40:11Z</time>
      </trkpt>
      <trkpt lat="45.64987" lon="5.98633">
        <ele>1327</ele>
        <time>2015-02-25T16:40:47Z</time>
      </trkpt>
      <trkpt lat="45.64982" lon="5.98608">
        <ele>1328</ele>
        <time>2015-02-25T16:41:07Z</time>
      </trkpt>
      <trkpt lat="45.6498" lon="5.98581">
        <ele>1333</ele>
        <time>2015-02-25T16:41:23Z</time>
      </trkpt>
      <trkpt lat="45.64968" lon="5.98561">
        <ele>1333</ele>
        <time>2015-02-25T16:41:56Z</time>
      </trkpt>
      <trkpt lat="45.64964" lon="5.98535">
        <ele>1334</ele>
        <time>2015-02-25T16:42:44Z</time>
      </trkpt>
      <trkpt lat="45.64955" lon="5.98513">
        <ele>1334</ele>
        <time>2015-02-25T16:43:06Z</time>
      </trkpt>
      <trkpt lat="45.64943" lon="5.98493">
        <ele>1337</ele>
        <time>2015-02-25T16:43:23Z</time>
      </trkpt>
      <trkpt lat="45.64932" lon="5.98472">
        <ele>1338</ele>
        <time>2015-02-25T16:43:44Z</time>
      </trkpt>
      <trkpt lat="45.64923" lon="5.98449">
        <ele>1338</ele>
        <time>2015-02-25T16:44:25Z</time>
      </trkpt>
      <trkpt lat="45.64916" lon="5.98425">
        <ele>1338</ele>
        <time>2015-02-25T16:44:37Z</time>
      </trkpt>
      <trkpt lat="45.64905" lon="5.98404">
        <ele>1339</ele>
        <time>2015-02-25T16:44:51Z</time>
      </trkpt>
      <trkpt lat="45.64889" lon="5.98392">
        <ele>1338</ele>
        <time>2015-02-25T16:45:07Z</time>
      </trkpt>
      <trkpt lat="45.64872" lon="5.98398">
        <ele>1338</ele>
        <time>2015-02-25T16:45:16Z</time>
      </trkpt>
      <trkpt lat="45.64853" lon="5.98413">
        <ele>1338</ele>
        <time>2015-02-25T16:45:21Z</time>
      </trkpt>
      <trkpt lat="45.64841" lon="5.98432">
        <ele>1337</ele>
        <time>2015-02-25T16:45:28Z</time>
      </trkpt>
      <trkpt lat="45.64835" lon="5.98457">
        <ele>1337</ele>
        <time>2015-02-25T16:45:41Z</time>
      </trkpt>
      <trkpt lat="45.64825" lon="5.9848">
        <ele>1333</ele>
        <time>2015-02-25T16:45:53Z</time>
      </trkpt>
      <trkpt lat="45.64814" lon="5.98505">
        <ele>1330</ele>
        <time>2015-02-25T16:45:59Z</time>
      </trkpt>
      <trkpt lat="45.64799" lon="5.98523">
        <ele>1327</ele>
        <time>2015-02-25T16:46:04Z</time>
      </trkpt>
      <trkpt lat="45.6478" lon="5.98529">
        <ele>1326</ele>
        <time>2015-02-25T16:46:07Z</time>
      </trkpt>
      <trkpt lat="45.6476" lon="5.98522">
        <ele>1326</ele>
        <time>2015-02-25T16:46:11Z</time>
      </trkpt>
      <trkpt lat="45.64745" lon="5.98505">
        <ele>1324</ele>
        <time>2015-02-25T16:46:17Z</time>
      </trkpt>
      <trkpt lat="45.64728" lon="5.98495">
        <ele>1325</ele>
        <time>2015-02-25T16:46:22Z</time>
      </trkpt>
      <trkpt lat="45.64711" lon="5.98483">
        <ele>1325</ele>
        <time>2015-02-25T16:46:29Z</time>
      </trkpt>
      <trkpt lat="45.64696" lon="5.9847">
        <ele>1324</ele>
        <time>2015-02-25T16:47:02Z</time>
      </trkpt>
      <trkpt lat="45.6468" lon="5.98455">
        <ele>1325</ele>
        <time>2015-02-25T16:47:20Z</time>
      </trkpt>
      <trkpt lat="45.64665" lon="5.9844">
        <ele>1322</ele>
        <time>2015-02-25T16:47:43Z</time>
      </trkpt>
      <trkpt lat="45.64653" lon="5.98418">
        <ele>1323</ele>
        <time>2015-02-25T16:48:06Z</time>
      </trkpt>
      <trkpt lat="45.64646" lon="5.98391">
        <ele>1324</ele>
        <time>2015-02-25T16:48:09Z</time>
      </trkpt>
      <trkpt lat="45.64639" lon="5.98359">
        <ele>1324</ele>
        <time>2015-02-25T16:48:13Z</time>
      </trkpt>
      <trkpt lat="45.64629" lon="5.98334">
        <ele>1324</ele>
        <time>2015-02-25T16:48:18Z</time>
      </trkpt>
      <trkpt lat="45.64611" lon="5.98323">
        <ele>1325</ele>
        <time>2015-02-25T16:48:24Z</time>
      </trkpt>
      <trkpt lat="45.64592" lon="5.98315">
        <ele>1324</ele>
        <time>2015-02-25T16:48:30Z</time>
      </trkpt>
      <trkpt lat="45.64575" lon="5.98305">
        <ele>1322</ele>
        <time>2015-02-25T16:48:39Z</time>
      </trkpt>
      <trkpt lat="45.64556" lon="5.98306">
        <ele>1322</ele>
        <time>2015-02-25T16:48:43Z</time>
      </trkpt>
      <trkpt lat="45.64535" lon="5.98307">
        <ele>1322</ele>
        <time>2015-02-25T16:48:48Z</time>
      </trkpt>
      <trkpt lat="45.64515" lon="5.98304">
        <ele>1322</ele>
        <time>2015-02-25T16:48:55Z</time>
      </trkpt>
    </trkseg>
  </trk>
</gpx>